<?xml version="1.0" encoding="UTF-8" standalone="no" ?>
<gpx xmlns="http://www.topografix.com/GPX/1/1" xmlns:xsi="http://www.w3.org/2001/XMLSchema-instance" xsi:schemaLocation="http://www.topografix.com/GPX/1/1 http://www.topografix.com/GPX/1/1/gpx.xsd" version="1.1" creator="VisuGPX - https://www.visugpx.com">
  <metadata>
    <name>2021 Raid en Provence</name>
  </metadata>
  <trk>
    <name><![CDATA[J3 Montagne de Lure]]></name>
    <extensions>
      <line xmlns="http://www.topografix.com/GPX/gpx_style/0/2">
        <color>00ff00</color>
        <width>4</width>
      </line>
    </extensions>
    <trkseg>
      <trkpt lat="44.1805" lon="5.63393">
        <ele>816</ele>
        <time>2021-05-29T06:30:23.000Z</time>
      </trkpt>
      <trkpt lat="44.18" lon="5.63444">
        <ele>811.3</ele>
        <time>2021-05-29T06:30:30.370Z</time>
      </trkpt>
      <trkpt lat="44.17963" lon="5.63487">
        <ele>802.6</ele>
        <time>2021-05-29T06:30:36.100Z</time>
      </trkpt>
      <trkpt lat="44.17926" lon="5.63573">
        <ele>794.7</ele>
        <time>2021-05-29T06:30:44.657Z</time>
      </trkpt>
      <trkpt lat="44.17902" lon="5.63646">
        <ele>787.9</ele>
        <time>2021-05-29T06:30:51.508Z</time>
      </trkpt>
      <trkpt lat="44.17883" lon="5.63749">
        <ele>781.6</ele>
        <time>2021-05-29T06:31:00.582Z</time>
      </trkpt>
      <trkpt lat="44.17834" lon="5.63796">
        <ele>772.7</ele>
        <time>2021-05-29T06:31:07.658Z</time>
      </trkpt>
      <trkpt lat="44.17754" lon="5.63826">
        <ele>759.6</ele>
        <time>2021-05-29T06:31:17.514Z</time>
      </trkpt>
      <trkpt lat="44.17683" lon="5.63852">
        <ele>751.9</ele>
        <time>2021-05-29T06:31:26.247Z</time>
      </trkpt>
      <trkpt lat="44.17622" lon="5.63865">
        <ele>748.5</ele>
        <time>2021-05-29T06:31:33.619Z</time>
      </trkpt>
      <trkpt lat="44.17585" lon="5.63856">
        <ele>747.5</ele>
        <time>2021-05-29T06:31:39.496Z</time>
      </trkpt>
      <trkpt lat="44.17526" lon="5.63874">
        <ele>750.8</ele>
        <time>2021-05-29T06:32:13.355Z</time>
      </trkpt>
      <trkpt lat="44.17483" lon="5.63899">
        <ele>750</ele>
        <time>2021-05-29T06:32:21.481Z</time>
      </trkpt>
      <trkpt lat="44.17459" lon="5.63925">
        <ele>746.7</ele>
        <time>2021-05-29T06:32:25.097Z</time>
      </trkpt>
      <trkpt lat="44.17406" lon="5.63916">
        <ele>745.2</ele>
        <time>2021-05-29T06:32:33.320Z</time>
      </trkpt>
      <trkpt lat="44.17332" lon="5.63942">
        <ele>738.1</ele>
        <time>2021-05-29T06:32:42.399Z</time>
      </trkpt>
      <trkpt lat="44.17286" lon="5.63947">
        <ele>738.5</ele>
        <time>2021-05-29T06:32:57.980Z</time>
      </trkpt>
      <trkpt lat="44.17215" lon="5.63942">
        <ele>741.1</ele>
        <time>2021-05-29T06:33:31.213Z</time>
      </trkpt>
      <trkpt lat="44.17166" lon="5.63998">
        <ele>742.2</ele>
        <time>2021-05-29T06:33:54.634Z</time>
      </trkpt>
      <trkpt lat="44.17117" lon="5.6405">
        <ele>747.6</ele>
        <time>2021-05-29T06:34:39.085Z</time>
      </trkpt>
      <trkpt lat="44.17071" lon="5.64105">
        <ele>750.5</ele>
        <time>2021-05-29T06:35:11.570Z</time>
      </trkpt>
      <trkpt lat="44.17046" lon="5.64161">
        <ele>751.7</ele>
        <time>2021-05-29T06:35:30.729Z</time>
      </trkpt>
      <trkpt lat="44.17" lon="5.64225">
        <ele>750.6</ele>
        <time>2021-05-29T06:35:42.098Z</time>
      </trkpt>
      <trkpt lat="44.16938" lon="5.64234">
        <ele>754.9</ele>
        <time>2021-05-29T06:36:20.795Z</time>
      </trkpt>
      <trkpt lat="44.16849" lon="5.64247">
        <ele>755.6</ele>
        <time>2021-05-29T06:36:50.761Z</time>
      </trkpt>
      <trkpt lat="44.16797" lon="5.64251">
        <ele>758.5</ele>
        <time>2021-05-29T06:37:20.165Z</time>
      </trkpt>
      <trkpt lat="44.16738" lon="5.64277">
        <ele>769.9</ele>
        <time>2021-05-29T06:38:34.361Z</time>
      </trkpt>
      <trkpt lat="44.16677" lon="5.64264">
        <ele>783.4</ele>
        <time>2021-05-29T06:39:48.355Z</time>
      </trkpt>
      <trkpt lat="44.16615" lon="5.6423">
        <ele>798</ele>
        <time>2021-05-29T06:41:08.244Z</time>
      </trkpt>
      <trkpt lat="44.16544" lon="5.64204">
        <ele>800.7</ele>
        <time>2021-05-29T06:41:42.659Z</time>
      </trkpt>
      <trkpt lat="44.16471" lon="5.64195">
        <ele>797.1</ele>
        <time>2021-05-29T06:41:51.871Z</time>
      </trkpt>
      <trkpt lat="44.164" lon="5.64238">
        <ele>801</ele>
        <time>2021-05-29T06:42:34.055Z</time>
      </trkpt>
      <trkpt lat="44.1635" lon="5.64307">
        <ele>809.4</ele>
        <time>2021-05-29T06:43:44.186Z</time>
      </trkpt>
      <trkpt lat="44.16292" lon="5.64367">
        <ele>813.7</ele>
        <time>2021-05-29T06:44:26.062Z</time>
      </trkpt>
      <trkpt lat="44.16369" lon="5.64376">
        <ele>820.9</ele>
        <time>2021-05-29T06:45:24.637Z</time>
      </trkpt>
      <trkpt lat="44.1636" lon="5.64436">
        <ele>824.1</ele>
        <time>2021-05-29T06:45:52.731Z</time>
      </trkpt>
      <trkpt lat="44.16344" lon="5.64513">
        <ele>820.3</ele>
        <time>2021-05-29T06:45:59.027Z</time>
      </trkpt>
      <trkpt lat="44.16335" lon="5.64586">
        <ele>815.9</ele>
        <time>2021-05-29T06:46:05.348Z</time>
      </trkpt>
      <trkpt lat="44.16338" lon="5.64659">
        <ele>810.5</ele>
        <time>2021-05-29T06:46:11.588Z</time>
      </trkpt>
      <trkpt lat="44.1632" lon="5.64715">
        <ele>807</ele>
        <time>2021-05-29T06:46:16.825Z</time>
      </trkpt>
      <trkpt lat="44.16277" lon="5.64723">
        <ele>809.8</ele>
        <time>2021-05-29T06:46:42.890Z</time>
      </trkpt>
      <trkpt lat="44.16273" lon="5.64783">
        <ele>809.4</ele>
        <time>2021-05-29T06:46:51.231Z</time>
      </trkpt>
      <trkpt lat="44.16283" lon="5.64805">
        <ele>809.5</ele>
        <time>2021-05-29T06:46:57.339Z</time>
      </trkpt>
      <trkpt lat="44.16233" lon="5.64874">
        <ele>811.5</ele>
        <time>2021-05-29T06:47:26.911Z</time>
      </trkpt>
      <trkpt lat="44.162" lon="5.64946">
        <ele>813.9</ele>
        <time>2021-05-29T06:47:56.621Z</time>
      </trkpt>
      <trkpt lat="44.16163" lon="5.65015">
        <ele>811</ele>
        <time>2021-05-29T06:48:04.542Z</time>
      </trkpt>
      <trkpt lat="44.16138" lon="5.65071">
        <ele>816.6</ele>
        <time>2021-05-29T06:48:51.124Z</time>
      </trkpt>
      <trkpt lat="44.16107" lon="5.65157">
        <ele>821.5</ele>
        <time>2021-05-29T06:49:34.633Z</time>
      </trkpt>
      <trkpt lat="44.16086" lon="5.65221">
        <ele>819.5</ele>
        <time>2021-05-29T06:49:41.554Z</time>
      </trkpt>
      <trkpt lat="44.16076" lon="5.65316">
        <ele>820.6</ele>
        <time>2021-05-29T06:50:06.637Z</time>
      </trkpt>
      <trkpt lat="44.16093" lon="5.65436">
        <ele>825.1</ele>
        <time>2021-05-29T06:50:54.740Z</time>
      </trkpt>
      <trkpt lat="44.16093" lon="5.65436">
        <ele>825.1</ele>
        <time>2021-05-29T06:50:54.740Z</time>
      </trkpt>
      <trkpt lat="44.16107" lon="5.65525">
        <ele>834.2</ele>
        <time>2021-05-29T06:52:13.117Z</time>
      </trkpt>
      <trkpt lat="44.16136" lon="5.65665">
        <ele>837.8</ele>
        <time>2021-05-29T06:53:00.589Z</time>
      </trkpt>
      <trkpt lat="44.16111" lon="5.65744">
        <ele>836.5</ele>
        <time>2021-05-29T06:53:10.915Z</time>
      </trkpt>
      <trkpt lat="44.161" lon="5.65869">
        <ele>837</ele>
        <time>2021-05-29T06:53:40.501Z</time>
      </trkpt>
      <trkpt lat="44.16053" lon="5.65942">
        <ele>838.9</ele>
        <time>2021-05-29T06:54:09.564Z</time>
      </trkpt>
      <trkpt lat="44.16032" lon="5.66">
        <ele>844.2</ele>
        <time>2021-05-29T06:54:53.056Z</time>
      </trkpt>
      <trkpt lat="44.16053" lon="5.66151">
        <ele>846.2</ele>
        <time>2021-05-29T06:55:34.187Z</time>
      </trkpt>
      <trkpt lat="44.1605" lon="5.66245">
        <ele>851.2</ele>
        <time>2021-05-29T06:56:17.751Z</time>
      </trkpt>
      <trkpt lat="44.16067" lon="5.66339">
        <ele>848.3</ele>
        <time>2021-05-29T06:56:27.099Z</time>
      </trkpt>
      <trkpt lat="44.1606" lon="5.66448">
        <ele>850.6</ele>
        <time>2021-05-29T06:57:00.457Z</time>
      </trkpt>
      <trkpt lat="44.16057" lon="5.66621">
        <ele>857.8</ele>
        <time>2021-05-29T06:58:11.671Z</time>
      </trkpt>
      <trkpt lat="44.16046" lon="5.6672">
        <ele>857.4</ele>
        <time>2021-05-29T06:58:32.257Z</time>
      </trkpt>
      <trkpt lat="44.1606" lon="5.66809">
        <ele>864.3</ele>
        <time>2021-05-29T06:59:28.128Z</time>
      </trkpt>
      <trkpt lat="44.16129" lon="5.66944">
        <ele>877.3</ele>
        <time>2021-05-29T07:01:13.867Z</time>
      </trkpt>
      <trkpt lat="44.1615" lon="5.67028">
        <ele>876.8</ele>
        <time>2021-05-29T07:01:26.419Z</time>
      </trkpt>
      <trkpt lat="44.16165" lon="5.67075">
        <ele>876.7</ele>
        <time>2021-05-29T07:01:37.434Z</time>
      </trkpt>
      <trkpt lat="44.16154" lon="5.67174">
        <ele>885</ele>
        <time>2021-05-29T07:02:45.862Z</time>
      </trkpt>
      <trkpt lat="44.16157" lon="5.67325">
        <ele>891.8</ele>
        <time>2021-05-29T07:03:50.138Z</time>
      </trkpt>
      <trkpt lat="44.1615" lon="5.6744">
        <ele>899.3</ele>
        <time>2021-05-29T07:04:51.446Z</time>
      </trkpt>
      <trkpt lat="44.16114" lon="5.67597">
        <ele>909.7</ele>
        <time>2021-05-29T07:06:16.996Z</time>
      </trkpt>
      <trkpt lat="44.16071" lon="5.67717">
        <ele>910.5</ele>
        <time>2021-05-29T07:06:49.376Z</time>
      </trkpt>
      <trkpt lat="44.16067" lon="5.67731">
        <ele>911.2</ele>
        <time>2021-05-29T07:06:55.881Z</time>
      </trkpt>
      <trkpt lat="44.16078" lon="5.67841">
        <ele>917.9</ele>
        <time>2021-05-29T07:07:51.648Z</time>
      </trkpt>
      <trkpt lat="44.15992" lon="5.68044">
        <ele>929.4</ele>
        <time>2021-05-29T07:09:35.872Z</time>
      </trkpt>
      <trkpt lat="44.15992" lon="5.68138">
        <ele>936.5</ele>
        <time>2021-05-29T07:10:33.349Z</time>
      </trkpt>
      <trkpt lat="44.15917" lon="5.68238">
        <ele>942.2</ele>
        <time>2021-05-29T07:11:31.644Z</time>
      </trkpt>
      <trkpt lat="44.15924" lon="5.68274">
        <ele>943.8</ele>
        <time>2021-05-29T07:11:47.187Z</time>
      </trkpt>
      <trkpt lat="44.15881" lon="5.68457">
        <ele>957.8</ele>
        <time>2021-05-29T07:13:40.348Z</time>
      </trkpt>
      <trkpt lat="44.1582" lon="5.68525">
        <ele>958.9</ele>
        <time>2021-05-29T07:14:08.226Z</time>
      </trkpt>
      <trkpt lat="44.15827" lon="5.68598">
        <ele>960.7</ele>
        <time>2021-05-29T07:14:32.102Z</time>
      </trkpt>
      <trkpt lat="44.1578" lon="5.6866">
        <ele>963.4</ele>
        <time>2021-05-29T07:15:04.663Z</time>
      </trkpt>
      <trkpt lat="44.15766" lon="5.68786">
        <ele>973.7</ele>
        <time>2021-05-29T07:16:28.964Z</time>
      </trkpt>
      <trkpt lat="44.15726" lon="5.68885">
        <ele>968.6</ele>
        <time>2021-05-29T07:16:38.133Z</time>
      </trkpt>
      <trkpt lat="44.15751" lon="5.68968">
        <ele>971.8</ele>
        <time>2021-05-29T07:17:13.135Z</time>
      </trkpt>
      <trkpt lat="44.15748" lon="5.69068">
        <ele>965.6</ele>
        <time>2021-05-29T07:17:21.678Z</time>
      </trkpt>
      <trkpt lat="44.15687" lon="5.69179">
        <ele>949.9</ele>
        <time>2021-05-29T07:17:33.612Z</time>
      </trkpt>
      <trkpt lat="44.1564" lon="5.69367">
        <ele>943.3</ele>
        <time>2021-05-29T07:17:52.036Z</time>
      </trkpt>
      <trkpt lat="44.1564" lon="5.69523">
        <ele>936.6</ele>
        <time>2021-05-29T07:18:04.897Z</time>
      </trkpt>
      <trkpt lat="44.15726" lon="5.69654">
        <ele>933.1</ele>
        <time>2021-05-29T07:18:24.649Z</time>
      </trkpt>
      <trkpt lat="44.15784" lon="5.69706">
        <ele>924.4</ele>
        <time>2021-05-29T07:18:32.853Z</time>
      </trkpt>
      <trkpt lat="44.15827" lon="5.69758">
        <ele>900.7</ele>
        <time>2021-05-29T07:18:39.625Z</time>
      </trkpt>
      <trkpt lat="44.15909" lon="5.69847">
        <ele>867.2</ele>
        <time>2021-05-29T07:18:51.989Z</time>
      </trkpt>
      <trkpt lat="44.16028" lon="5.69868">
        <ele>855.2</ele>
        <time>2021-05-29T07:19:06.260Z</time>
      </trkpt>
      <trkpt lat="44.16064" lon="5.69904">
        <ele>837.6</ele>
        <time>2021-05-29T07:19:11.531Z</time>
      </trkpt>
      <trkpt lat="44.16143" lon="5.69894">
        <ele>834.7</ele>
        <time>2021-05-29T07:19:22.732Z</time>
      </trkpt>
      <trkpt lat="44.16247" lon="5.69936">
        <ele>810.4</ele>
        <time>2021-05-29T07:19:35.614Z</time>
      </trkpt>
      <trkpt lat="44.16337" lon="5.69967">
        <ele>793.7</ele>
        <time>2021-05-29T07:19:46.643Z</time>
      </trkpt>
      <trkpt lat="44.1644" lon="5.6997">
        <ele>776</ele>
        <time>2021-05-29T07:19:58.899Z</time>
      </trkpt>
      <trkpt lat="44.16515" lon="5.6989">
        <ele>769.6</ele>
        <time>2021-05-29T07:20:10.134Z</time>
      </trkpt>
      <trkpt lat="44.16585" lon="5.69946">
        <ele>753.2</ele>
        <time>2021-05-29T07:20:19.736Z</time>
      </trkpt>
      <trkpt lat="44.16653" lon="5.69946">
        <ele>743.8</ele>
        <time>2021-05-29T07:20:27.826Z</time>
      </trkpt>
      <trkpt lat="44.16711" lon="5.69931">
        <ele>736.6</ele>
        <time>2021-05-29T07:20:34.844Z</time>
      </trkpt>
      <trkpt lat="44.16768" lon="5.69936">
        <ele>727.8</ele>
        <time>2021-05-29T07:20:41.638Z</time>
      </trkpt>
      <trkpt lat="44.16801" lon="5.69967">
        <ele>721.3</ele>
        <time>2021-05-29T07:20:46.373Z</time>
      </trkpt>
      <trkpt lat="44.16811" lon="5.70035">
        <ele>716.5</ele>
        <time>2021-05-29T07:20:52.296Z</time>
      </trkpt>
      <trkpt lat="44.16813" lon="5.70052">
        <ele>715.2</ele>
        <time>2021-05-29T07:20:53.766Z</time>
      </trkpt>
      <trkpt lat="44.16813" lon="5.70052">
        <ele>715.2</ele>
        <time>2021-05-29T07:20:53.766Z</time>
      </trkpt>
      <trkpt lat="44.16727" lon="5.7013">
        <ele>718.4</ele>
        <time>2021-05-29T07:21:38.418Z</time>
      </trkpt>
      <trkpt lat="44.16641" lon="5.70198">
        <ele>724.3</ele>
        <time>2021-05-29T07:22:35.799Z</time>
      </trkpt>
      <trkpt lat="44.1658" lon="5.70297">
        <ele>730.6</ele>
        <time>2021-05-29T07:23:33.191Z</time>
      </trkpt>
      <trkpt lat="44.16476" lon="5.70334">
        <ele>731.5</ele>
        <time>2021-05-29T07:24:09.334Z</time>
      </trkpt>
      <trkpt lat="44.16364" lon="5.7036">
        <ele>726.3</ele>
        <time>2021-05-29T07:24:24.034Z</time>
      </trkpt>
      <trkpt lat="44.16278" lon="5.70386">
        <ele>724.7</ele>
        <time>2021-05-29T07:24:39.197Z</time>
      </trkpt>
      <trkpt lat="44.16206" lon="5.70381">
        <ele>725.9</ele>
        <time>2021-05-29T07:25:05.639Z</time>
      </trkpt>
      <trkpt lat="44.16098" lon="5.70459">
        <ele>725.6</ele>
        <time>2021-05-29T07:25:42.075Z</time>
      </trkpt>
      <trkpt lat="44.16001" lon="5.7049">
        <ele>730.7</ele>
        <time>2021-05-29T07:26:36.616Z</time>
      </trkpt>
      <trkpt lat="44.15915" lon="5.70496">
        <ele>735.3</ele>
        <time>2021-05-29T07:27:24.496Z</time>
      </trkpt>
      <trkpt lat="44.15789" lon="5.70438">
        <ele>745.2</ele>
        <time>2021-05-29T07:28:50.491Z</time>
      </trkpt>
      <trkpt lat="44.15685" lon="5.70443">
        <ele>744.6</ele>
        <time>2021-05-29T07:29:20.215Z</time>
      </trkpt>
      <trkpt lat="44.15613" lon="5.70376">
        <ele>752</ele>
        <time>2021-05-29T07:30:21.526Z</time>
      </trkpt>
      <trkpt lat="44.15549" lon="5.70355">
        <ele>754.7</ele>
        <time>2021-05-29T07:30:54.290Z</time>
      </trkpt>
      <trkpt lat="44.1552" lon="5.70313">
        <ele>756.9</ele>
        <time>2021-05-29T07:31:17.417Z</time>
      </trkpt>
      <trkpt lat="44.1547" lon="5.7031">
        <ele>758</ele>
        <time>2021-05-29T07:31:36.897Z</time>
      </trkpt>
      <trkpt lat="44.15445" lon="5.70346">
        <ele>758.1</ele>
        <time>2021-05-29T07:31:48.364Z</time>
      </trkpt>
      <trkpt lat="44.15427" lon="5.70389">
        <ele>759.8</ele>
        <time>2021-05-29T07:32:07.479Z</time>
      </trkpt>
      <trkpt lat="44.15336" lon="5.70475">
        <ele>779</ele>
        <time>2021-05-29T07:34:19.314Z</time>
      </trkpt>
      <trkpt lat="44.15328" lon="5.70577">
        <ele>788.2</ele>
        <time>2021-05-29T07:35:37.965Z</time>
      </trkpt>
      <trkpt lat="44.15255" lon="5.70613">
        <ele>810.7</ele>
        <time>2021-05-29T07:37:10.816Z</time>
      </trkpt>
      <trkpt lat="44.15223" lon="5.70719">
        <ele>828.8</ele>
        <time>2021-05-29T07:38:49.755Z</time>
      </trkpt>
      <trkpt lat="44.15148" lon="5.70754">
        <ele>830.2</ele>
        <time>2021-05-29T07:39:19.100Z</time>
      </trkpt>
      <trkpt lat="44.15106" lon="5.70752">
        <ele>836.4</ele>
        <time>2021-05-29T07:40:09.491Z</time>
      </trkpt>
      <trkpt lat="44.15079" lon="5.70769">
        <ele>843.3</ele>
        <time>2021-05-29T07:40:45.017Z</time>
      </trkpt>
      <trkpt lat="44.1509" lon="5.70854">
        <ele>849.1</ele>
        <time>2021-05-29T07:41:32.172Z</time>
      </trkpt>
      <trkpt lat="44.15071" lon="5.70897">
        <ele>857.1</ele>
        <time>2021-05-29T07:42:15.619Z</time>
      </trkpt>
      <trkpt lat="44.15024" lon="5.70908">
        <ele>859.4</ele>
        <time>2021-05-29T07:42:41.233Z</time>
      </trkpt>
      <trkpt lat="44.14909" lon="5.70945">
        <ele>870.5</ele>
        <time>2021-05-29T07:44:11.417Z</time>
      </trkpt>
      <trkpt lat="44.14772" lon="5.71185">
        <ele>898.9</ele>
        <time>2021-05-29T07:48:19.586Z</time>
      </trkpt>
      <trkpt lat="44.14783" lon="5.71267">
        <ele>910.4</ele>
        <time>2021-05-29T07:49:31.361Z</time>
      </trkpt>
      <trkpt lat="44.14716" lon="5.71391">
        <ele>921.3</ele>
        <time>2021-05-29T07:50:59.567Z</time>
      </trkpt>
      <trkpt lat="44.14732" lon="5.71434">
        <ele>920.7</ele>
        <time>2021-05-29T07:51:05.623Z</time>
      </trkpt>
      <trkpt lat="44.14737" lon="5.71488">
        <ele>923.5</ele>
        <time>2021-05-29T07:51:30.374Z</time>
      </trkpt>
      <trkpt lat="44.14761" lon="5.71402">
        <ele>917.4</ele>
        <time>2021-05-29T07:51:38.251Z</time>
      </trkpt>
      <trkpt lat="44.1477" lon="5.71674">
        <ele>948.3</ele>
        <time>2021-05-29T07:55:32.528Z</time>
      </trkpt>
      <trkpt lat="44.14933" lon="5.71965">
        <ele>971.7</ele>
        <time>2021-05-29T07:58:44.821Z</time>
      </trkpt>
      <trkpt lat="44.14916" lon="5.7211">
        <ele>974.6</ele>
        <time>2021-05-29T07:59:28.633Z</time>
      </trkpt>
      <trkpt lat="44.14824" lon="5.72279">
        <ele>984.2</ele>
        <time>2021-05-29T08:00:59.122Z</time>
      </trkpt>
      <trkpt lat="44.1477" lon="5.72417">
        <ele>1001.7</ele>
        <time>2021-05-29T08:03:14.364Z</time>
      </trkpt>
      <trkpt lat="44.14717" lon="5.72404">
        <ele>1001.8</ele>
        <time>2021-05-29T08:03:31.384Z</time>
      </trkpt>
      <trkpt lat="44.1453" lon="5.72655">
        <ele>1035.7</ele>
        <time>2021-05-29T08:08:30.329Z</time>
      </trkpt>
      <trkpt lat="44.14458" lon="5.72661">
        <ele>1033.2</ele>
        <time>2021-05-29T08:08:40.708Z</time>
      </trkpt>
      <trkpt lat="44.14479" lon="5.72741">
        <ele>1029.4</ele>
        <time>2021-05-29T08:08:47.605Z</time>
      </trkpt>
      <trkpt lat="44.14474" lon="5.72967">
        <ele>1012.8</ele>
        <time>2021-05-29T08:09:06.908Z</time>
      </trkpt>
      <trkpt lat="44.14512" lon="5.73107">
        <ele>1002.4</ele>
        <time>2021-05-29T08:09:19.686Z</time>
      </trkpt>
      <trkpt lat="44.14438" lon="5.73043">
        <ele>991.3</ele>
        <time>2021-05-29T08:09:30.047Z</time>
      </trkpt>
      <trkpt lat="44.14392" lon="5.72969">
        <ele>994</ele>
        <time>2021-05-29T08:10:03.753Z</time>
      </trkpt>
      <trkpt lat="44.1432" lon="5.7303">
        <ele>980.1</ele>
        <time>2021-05-29T08:10:13.777Z</time>
      </trkpt>
      <trkpt lat="44.14285" lon="5.73086">
        <ele>975.8</ele>
        <time>2021-05-29T08:10:20.117Z</time>
      </trkpt>
      <trkpt lat="44.14304" lon="5.73125">
        <ele>970.4</ele>
        <time>2021-05-29T08:10:24.142Z</time>
      </trkpt>
      <trkpt lat="44.14241" lon="5.73206">
        <ele>971.2</ele>
        <time>2021-05-29T08:10:53.280Z</time>
      </trkpt>
      <trkpt lat="44.14316" lon="5.73355">
        <ele>974.3</ele>
        <time>2021-05-29T08:11:45.161Z</time>
      </trkpt>
      <trkpt lat="44.14294" lon="5.73472">
        <ele>982.9</ele>
        <time>2021-05-29T08:12:54.708Z</time>
      </trkpt>
      <trkpt lat="44.14226" lon="5.73569">
        <ele>980</ele>
        <time>2021-05-29T08:13:09.426Z</time>
      </trkpt>
      <trkpt lat="44.1421" lon="5.7371">
        <ele>984.8</ele>
        <time>2021-05-29T08:14:03.987Z</time>
      </trkpt>
      <trkpt lat="44.14241" lon="5.73814">
        <ele>984</ele>
        <time>2021-05-29T08:14:19.446Z</time>
      </trkpt>
      <trkpt lat="44.14222" lon="5.73911">
        <ele>981.6</ele>
        <time>2021-05-29T08:14:29.977Z</time>
      </trkpt>
      <trkpt lat="44.14304" lon="5.73928">
        <ele>976.6</ele>
        <time>2021-05-29T08:14:39.469Z</time>
      </trkpt>
      <trkpt lat="44.14359" lon="5.73969">
        <ele>976</ele>
        <time>2021-05-29T08:14:51.446Z</time>
      </trkpt>
      <trkpt lat="44.14385" lon="5.74041">
        <ele>979.3</ele>
        <time>2021-05-29T08:15:24.410Z</time>
      </trkpt>
      <trkpt lat="44.14355" lon="5.74119">
        <ele>984.9</ele>
        <time>2021-05-29T08:16:10.447Z</time>
      </trkpt>
      <trkpt lat="44.14371" lon="5.74367">
        <ele>1003</ele>
        <time>2021-05-29T08:18:36.748Z</time>
      </trkpt>
      <trkpt lat="44.14352" lon="5.74459">
        <ele>1008.8</ele>
        <time>2021-05-29T08:19:24.968Z</time>
      </trkpt>
      <trkpt lat="44.14369" lon="5.74536">
        <ele>1011.9</ele>
        <time>2021-05-29T08:19:57.157Z</time>
      </trkpt>
      <trkpt lat="44.14372" lon="5.74662">
        <ele>1012.1</ele>
        <time>2021-05-29T08:20:25.862Z</time>
      </trkpt>
      <trkpt lat="44.14364" lon="5.74725">
        <ele>1015.1</ele>
        <time>2021-05-29T08:20:53.608Z</time>
      </trkpt>
      <trkpt lat="44.14446" lon="5.74961">
        <ele>1020.1</ele>
        <time>2021-05-29T08:22:10.920Z</time>
      </trkpt>
      <trkpt lat="44.14436" lon="5.7505">
        <ele>1022.9</ele>
        <time>2021-05-29T08:22:44.232Z</time>
      </trkpt>
      <trkpt lat="44.14463" lon="5.75113">
        <ele>1023.4</ele>
        <time>2021-05-29T08:23:02.162Z</time>
      </trkpt>
      <trkpt lat="44.1449" lon="5.75234">
        <ele>1028.4</ele>
        <time>2021-05-29T08:23:53.258Z</time>
      </trkpt>
      <trkpt lat="44.1448" lon="5.75354">
        <ele>1037</ele>
        <time>2021-05-29T08:25:02.801Z</time>
      </trkpt>
      <trkpt lat="44.14402" lon="5.75388">
        <ele>1038.2</ele>
        <time>2021-05-29T08:25:32.156Z</time>
      </trkpt>
      <trkpt lat="44.14241" lon="5.75401">
        <ele>1052.7</ele>
        <time>2021-05-29T08:27:30.861Z</time>
      </trkpt>
      <trkpt lat="44.14207" lon="5.75468">
        <ele>1059.1</ele>
        <time>2021-05-29T08:28:22.867Z</time>
      </trkpt>
      <trkpt lat="44.14137" lon="5.75719">
        <ele>1051.7</ele>
        <time>2021-05-29T08:28:49.699Z</time>
      </trkpt>
      <trkpt lat="44.14045" lon="5.75961">
        <ele>1044.7</ele>
        <time>2021-05-29T08:29:17.710Z</time>
      </trkpt>
      <trkpt lat="44.13927" lon="5.76177">
        <ele>1034.1</ele>
        <time>2021-05-29T08:29:41.117Z</time>
      </trkpt>
      <trkpt lat="44.13905" lon="5.76362">
        <ele>1026.9</ele>
        <time>2021-05-29T08:29:57.409Z</time>
      </trkpt>
      <trkpt lat="44.1384" lon="5.76578">
        <ele>1018</ele>
        <time>2021-05-29T08:30:17.855Z</time>
      </trkpt>
      <trkpt lat="44.13847" lon="5.76824">
        <ele>1027.2</ele>
        <time>2021-05-29T08:31:55.217Z</time>
      </trkpt>
      <trkpt lat="44.13827" lon="5.76922">
        <ele>1012.5</ele>
        <time>2021-05-29T08:32:03.916Z</time>
      </trkpt>
      <trkpt lat="44.13831" lon="5.77013">
        <ele>1006.7</ele>
        <time>2021-05-29T08:32:11.700Z</time>
      </trkpt>
      <trkpt lat="44.13776" lon="5.77194">
        <ele>979.5</ele>
        <time>2021-05-29T08:32:28.482Z</time>
      </trkpt>
      <trkpt lat="44.13714" lon="5.77274">
        <ele>952.1</ele>
        <time>2021-05-29T08:32:38.535Z</time>
      </trkpt>
      <trkpt lat="44.13707" lon="5.77234">
        <ele>954.8</ele>
        <time>2021-05-29T08:33:00.571Z</time>
      </trkpt>
      <trkpt lat="44.13687" lon="5.77298">
        <ele>942.1</ele>
        <time>2021-05-29T08:33:06.531Z</time>
      </trkpt>
      <trkpt lat="44.13652" lon="5.77265">
        <ele>934.4</ele>
        <time>2021-05-29T08:33:11.558Z</time>
      </trkpt>
      <trkpt lat="44.13611" lon="5.77467">
        <ele>889.9</ele>
        <time>2021-05-29T08:33:29.482Z</time>
      </trkpt>
      <trkpt lat="44.13583" lon="5.77509">
        <ele>878.3</ele>
        <time>2021-05-29T08:33:34.376Z</time>
      </trkpt>
      <trkpt lat="44.13606" lon="5.77592">
        <ele>874.1</ele>
        <time>2021-05-29T08:33:41.383Z</time>
      </trkpt>
      <trkpt lat="44.13546" lon="5.77631">
        <ele>884.5</ele>
        <time>2021-05-29T08:35:00.771Z</time>
      </trkpt>
      <trkpt lat="44.13552" lon="5.7757">
        <ele>890.7</ele>
        <time>2021-05-29T08:35:53.757Z</time>
      </trkpt>
      <trkpt lat="44.13522" lon="5.77537">
        <ele>904.6</ele>
        <time>2021-05-29T08:36:39.589Z</time>
      </trkpt>
      <trkpt lat="44.13349" lon="5.77664">
        <ele>927.2</ele>
        <time>2021-05-29T08:39:45.957Z</time>
      </trkpt>
      <trkpt lat="44.13349" lon="5.77712">
        <ele>926</ele>
        <time>2021-05-29T08:39:50.906Z</time>
      </trkpt>
      <trkpt lat="44.133" lon="5.77775">
        <ele>940.8</ele>
        <time>2021-05-29T08:41:10.855Z</time>
      </trkpt>
      <trkpt lat="44.13295" lon="5.77886">
        <ele>940.8</ele>
        <time>2021-05-29T08:41:35.670Z</time>
      </trkpt>
      <trkpt lat="44.13325" lon="5.77992">
        <ele>937.5</ele>
        <time>2021-05-29T08:41:46.804Z</time>
      </trkpt>
      <trkpt lat="44.13297" lon="5.78029">
        <ele>950.6</ele>
        <time>2021-05-29T08:42:33.077Z</time>
      </trkpt>
      <trkpt lat="44.13319" lon="5.78129">
        <ele>953</ele>
        <time>2021-05-29T08:43:06.078Z</time>
      </trkpt>
      <trkpt lat="44.13388" lon="5.78162">
        <ele>954.7</ele>
        <time>2021-05-29T08:43:34.911Z</time>
      </trkpt>
      <trkpt lat="44.13405" lon="5.78268">
        <ele>964.1</ele>
        <time>2021-05-29T08:44:53.743Z</time>
      </trkpt>
      <trkpt lat="44.13388" lon="5.78384">
        <ele>979.6</ele>
        <time>2021-05-29T08:46:35.632Z</time>
      </trkpt>
      <trkpt lat="44.13408" lon="5.78422">
        <ele>976.4</ele>
        <time>2021-05-29T08:46:39.656Z</time>
      </trkpt>
      <trkpt lat="44.13356" lon="5.78559">
        <ele>998.4</ele>
        <time>2021-05-29T08:48:53.031Z</time>
      </trkpt>
      <trkpt lat="44.1332" lon="5.78582">
        <ele>1008.1</ele>
        <time>2021-05-29T08:49:40.519Z</time>
      </trkpt>
      <trkpt lat="44.13336" lon="5.78564">
        <ele>1002.2</ele>
        <time>2021-05-29T08:49:42.966Z</time>
      </trkpt>
      <trkpt lat="44.13302" lon="5.78539">
        <ele>1010</ele>
        <time>2021-05-29T08:50:29.064Z</time>
      </trkpt>
      <trkpt lat="44.13273" lon="5.78499">
        <ele>1014.7</ele>
        <time>2021-05-29T08:51:07.779Z</time>
      </trkpt>
      <trkpt lat="44.132" lon="5.78473">
        <ele>1027.3</ele>
        <time>2021-05-29T08:52:38.126Z</time>
      </trkpt>
      <trkpt lat="44.13219" lon="5.78539">
        <ele>1032.3</ele>
        <time>2021-05-29T08:53:18.585Z</time>
      </trkpt>
      <trkpt lat="44.13202" lon="5.78604">
        <ele>1051.3</ele>
        <time>2021-05-29T08:54:18.124Z</time>
      </trkpt>
      <trkpt lat="44.13267" lon="5.7865">
        <ele>1044.2</ele>
        <time>2021-05-29T08:54:26.797Z</time>
      </trkpt>
      <trkpt lat="44.13303" lon="5.78721">
        <ele>1050</ele>
        <time>2021-05-29T08:55:13.999Z</time>
      </trkpt>
      <trkpt lat="44.13324" lon="5.78808">
        <ele>1063.7</ele>
        <time>2021-05-29T08:56:32.993Z</time>
      </trkpt>
      <trkpt lat="44.13365" lon="5.78863">
        <ele>1061.3</ele>
        <time>2021-05-29T08:56:40.610Z</time>
      </trkpt>
      <trkpt lat="44.1338" lon="5.78918">
        <ele>1071.3</ele>
        <time>2021-05-29T08:57:31.246Z</time>
      </trkpt>
      <trkpt lat="44.13413" lon="5.78932">
        <ele>1064.6</ele>
        <time>2021-05-29T08:57:35.350Z</time>
      </trkpt>
      <trkpt lat="44.1347" lon="5.79025">
        <ele>1073.1</ele>
        <time>2021-05-29T08:58:44.188Z</time>
      </trkpt>
      <trkpt lat="44.13503" lon="5.79237">
        <ele>1098.7</ele>
        <time>2021-05-29T09:01:50.874Z</time>
      </trkpt>
      <trkpt lat="44.13584" lon="5.79331">
        <ele>1097.8</ele>
        <time>2021-05-29T09:02:11.412Z</time>
      </trkpt>
      <trkpt lat="44.13568" lon="5.79509">
        <ele>1118</ele>
        <time>2021-05-29T09:04:45.791Z</time>
      </trkpt>
      <trkpt lat="44.13687" lon="5.7959">
        <ele>1092.9</ele>
        <time>2021-05-29T09:05:01.547Z</time>
      </trkpt>
      <trkpt lat="44.13668" lon="5.79771">
        <ele>1091.1</ele>
        <time>2021-05-29T09:05:25.449Z</time>
      </trkpt>
      <trkpt lat="44.13635" lon="5.79828">
        <ele>1097.6</ele>
        <time>2021-05-29T09:06:20.678Z</time>
      </trkpt>
      <trkpt lat="44.13655" lon="5.79916">
        <ele>1077.3</ele>
        <time>2021-05-29T09:06:28.559Z</time>
      </trkpt>
      <trkpt lat="44.1364" lon="5.80003">
        <ele>1076.4</ele>
        <time>2021-05-29T09:06:40.205Z</time>
      </trkpt>
      <trkpt lat="44.13553" lon="5.80008">
        <ele>1096.7</ele>
        <time>2021-05-29T09:08:24.614Z</time>
      </trkpt>
      <trkpt lat="44.13603" lon="5.80131">
        <ele>1086.7</ele>
        <time>2021-05-29T09:08:36.684Z</time>
      </trkpt>
      <trkpt lat="44.13607" lon="5.80216">
        <ele>1087.5</ele>
        <time>2021-05-29T09:08:58.277Z</time>
      </trkpt>
      <trkpt lat="44.13581" lon="5.80273">
        <ele>1091.9</ele>
        <time>2021-05-29T09:09:34.231Z</time>
      </trkpt>
      <trkpt lat="44.13557" lon="5.80709">
        <ele>1100.1</ele>
        <time>2021-05-29T09:11:42.490Z</time>
      </trkpt>
      <trkpt lat="44.13498" lon="5.80774">
        <ele>1105.8</ele>
        <time>2021-05-29T09:12:31.686Z</time>
      </trkpt>
      <trkpt lat="44.13583" lon="5.80974">
        <ele>1106.1</ele>
        <time>2021-05-29T09:13:24.414Z</time>
      </trkpt>
      <trkpt lat="44.13338" lon="5.81473">
        <ele>1126.9</ele>
        <time>2021-05-29T09:17:17.135Z</time>
      </trkpt>
      <trkpt lat="44.13214" lon="5.81483">
        <ele>1146.1</ele>
        <time>2021-05-29T09:19:46.070Z</time>
      </trkpt>
      <trkpt lat="44.13111" lon="5.81772">
        <ele>1158.2</ele>
        <time>2021-05-29T09:21:53.841Z</time>
      </trkpt>
      <trkpt lat="44.13083" lon="5.81908">
        <ele>1159.1</ele>
        <time>2021-05-29T09:22:28.199Z</time>
      </trkpt>
      <trkpt lat="44.13044" lon="5.81924">
        <ele>1169.7</ele>
        <time>2021-05-29T09:23:16.949Z</time>
      </trkpt>
      <trkpt lat="44.13068" lon="5.8185">
        <ele>1171.4</ele>
        <time>2021-05-29T09:23:41.673Z</time>
      </trkpt>
      <trkpt lat="44.1305" lon="5.81718">
        <ele>1188.4</ele>
        <time>2021-05-29T09:25:37.311Z</time>
      </trkpt>
      <trkpt lat="44.13077" lon="5.81605">
        <ele>1186.1</ele>
        <time>2021-05-29T09:25:50.646Z</time>
      </trkpt>
      <trkpt lat="44.13067" lon="5.81412">
        <ele>1211.4</ele>
        <time>2021-05-29T09:28:37.183Z</time>
      </trkpt>
      <trkpt lat="44.13132" lon="5.81291">
        <ele>1208.6</ele>
        <time>2021-05-29T09:28:54.309Z</time>
      </trkpt>
      <trkpt lat="44.13139" lon="5.81207">
        <ele>1207.9</ele>
        <time>2021-05-29T09:29:05.673Z</time>
      </trkpt>
      <trkpt lat="44.13094" lon="5.81325">
        <ele>1216.8</ele>
        <time>2021-05-29T09:30:18.123Z</time>
      </trkpt>
      <trkpt lat="44.13035" lon="5.8137">
        <ele>1238.3</ele>
        <time>2021-05-29T09:31:38.776Z</time>
      </trkpt>
      <trkpt lat="44.13011" lon="5.8154">
        <ele>1225.9</ele>
        <time>2021-05-29T09:31:53.570Z</time>
      </trkpt>
      <trkpt lat="44.12933" lon="5.81753">
        <ele>1238.2</ele>
        <time>2021-05-29T09:33:42.300Z</time>
      </trkpt>
      <trkpt lat="44.12873" lon="5.81867">
        <ele>1243.1</ele>
        <time>2021-05-29T09:34:36.845Z</time>
      </trkpt>
      <trkpt lat="44.12826" lon="5.81909">
        <ele>1256.4</ele>
        <time>2021-05-29T09:35:43.799Z</time>
      </trkpt>
      <trkpt lat="44.12761" lon="5.82134">
        <ele>1251.6</ele>
        <time>2021-05-29T09:36:10.763Z</time>
      </trkpt>
      <trkpt lat="44.12693" lon="5.82142">
        <ele>1272.8</ele>
        <time>2021-05-29T09:37:32.591Z</time>
      </trkpt>
      <trkpt lat="44.12664" lon="5.82219">
        <ele>1264.8</ele>
        <time>2021-05-29T09:37:40.016Z</time>
      </trkpt>
      <trkpt lat="44.12532" lon="5.82339">
        <ele>1285.4</ele>
        <time>2021-05-29T09:40:41.818Z</time>
      </trkpt>
      <trkpt lat="44.1248" lon="5.82443">
        <ele>1289.5</ele>
        <time>2021-05-29T09:41:29.723Z</time>
      </trkpt>
      <trkpt lat="44.12476" lon="5.82516">
        <ele>1286.1</ele>
        <time>2021-05-29T09:41:35.538Z</time>
      </trkpt>
      <trkpt lat="44.12322" lon="5.82788">
        <ele>1304.1</ele>
        <time>2021-05-29T09:44:13.944Z</time>
      </trkpt>
      <trkpt lat="44.12115" lon="5.82997">
        <ele>1324.5</ele>
        <time>2021-05-29T09:47:06.624Z</time>
      </trkpt>
      <trkpt lat="44.11987" lon="5.83175">
        <ele>1335.3</ele>
        <time>2021-05-29T09:48:51.621Z</time>
      </trkpt>
      <trkpt lat="44.12055" lon="5.8298">
        <ele>1350</ele>
        <time>2021-05-29T09:50:50.986Z</time>
      </trkpt>
      <trkpt lat="44.12137" lon="5.82879">
        <ele>1351.3</ele>
        <time>2021-05-29T09:51:29.167Z</time>
      </trkpt>
      <trkpt lat="44.12239" lon="5.82672">
        <ele>1368.4</ele>
        <time>2021-05-29T09:53:47.945Z</time>
      </trkpt>
      <trkpt lat="44.12309" lon="5.82454">
        <ele>1377.1</ele>
        <time>2021-05-29T09:55:21.592Z</time>
      </trkpt>
      <trkpt lat="44.12293" lon="5.82396">
        <ele>1394.4</ele>
        <time>2021-05-29T09:56:15.075Z</time>
      </trkpt>
      <trkpt lat="44.12468" lon="5.81933">
        <ele>1421</ele>
        <time>2021-05-29T10:00:11.500Z</time>
      </trkpt>
      <trkpt lat="44.12535" lon="5.81826">
        <ele>1419.5</ele>
        <time>2021-05-29T10:00:29.823Z</time>
      </trkpt>
      <trkpt lat="44.12621" lon="5.81429">
        <ele>1453.4</ele>
        <time>2021-05-29T10:05:08.121Z</time>
      </trkpt>
      <trkpt lat="44.12693" lon="5.81246">
        <ele>1461.6</ele>
        <time>2021-05-29T10:06:32.158Z</time>
      </trkpt>
      <trkpt lat="44.12666" lon="5.81239">
        <ele>1478.2</ele>
        <time>2021-05-29T10:07:05.089Z</time>
      </trkpt>
      <trkpt lat="44.12595" lon="5.81404">
        <ele>1474</ele>
        <time>2021-05-29T10:07:25.841Z</time>
      </trkpt>
      <trkpt lat="44.12457" lon="5.81729">
        <ele>1483.8</ele>
        <time>2021-05-29T10:09:31.827Z</time>
      </trkpt>
      <trkpt lat="44.12218" lon="5.82043">
        <ele>1522.1</ele>
        <time>2021-05-29T10:14:48.600Z</time>
      </trkpt>
      <trkpt lat="44.12052" lon="5.82384">
        <ele>1532.8</ele>
        <time>2021-05-29T10:17:06.116Z</time>
      </trkpt>
      <trkpt lat="44.11765" lon="5.8277">
        <ele>1572.2</ele>
        <time>2021-05-29T10:22:24.784Z</time>
      </trkpt>
      <trkpt lat="44.11559" lon="5.83186">
        <ele>1585.5</ele>
        <time>2021-05-29T10:25:14.590Z</time>
      </trkpt>
      <trkpt lat="44.11555" lon="5.83295">
        <ele>1577.2</ele>
        <time>2021-05-29T10:25:23.912Z</time>
      </trkpt>
      <trkpt lat="44.11529" lon="5.83331">
        <ele>1581.1</ele>
        <time>2021-05-29T10:25:55.515Z</time>
      </trkpt>
      <trkpt lat="44.11492" lon="5.83053">
        <ele>1601.8</ele>
        <time>2021-05-29T10:28:42.838Z</time>
      </trkpt>
      <trkpt lat="44.11552" lon="5.8286">
        <ele>1609.1</ele>
        <time>2021-05-29T10:30:04.036Z</time>
      </trkpt>
      <trkpt lat="44.11727" lon="5.82589">
        <ele>1621.2</ele>
        <time>2021-05-29T10:32:22.861Z</time>
      </trkpt>
      <trkpt lat="44.11746" lon="5.82412">
        <ele>1628.4</ele>
        <time>2021-05-29T10:33:35.579Z</time>
      </trkpt>
      <trkpt lat="44.11829" lon="5.82219">
        <ele>1647.1</ele>
        <time>2021-05-29T10:36:09.876Z</time>
      </trkpt>
      <trkpt lat="44.11846" lon="5.82085">
        <ele>1650.7</ele>
        <time>2021-05-29T10:36:55.719Z</time>
      </trkpt>
      <trkpt lat="44.11782" lon="5.81782">
        <ele>1660.9</ele>
        <time>2021-05-29T10:38:55.052Z</time>
      </trkpt>
      <trkpt lat="44.11771" lon="5.81614">
        <ele>1667</ele>
        <time>2021-05-29T10:40:01.044Z</time>
      </trkpt>
      <trkpt lat="44.11771" lon="5.81614">
        <ele>1667</ele>
        <time>2021-05-29T10:40:01.044Z</time>
      </trkpt>
      <trkpt lat="44.11775" lon="5.81563">
        <ele>1665.1</ele>
        <time>2021-05-29T10:40:05.576Z</time>
      </trkpt>
      <trkpt lat="44.11823" lon="5.81569">
        <ele>1669.8</ele>
        <time>2021-05-29T10:40:43.619Z</time>
      </trkpt>
      <trkpt lat="44.11871" lon="5.81591">
        <ele>1677.2</ele>
        <time>2021-05-29T10:41:44.210Z</time>
      </trkpt>
      <trkpt lat="44.11889" lon="5.8164">
        <ele>1682.1</ele>
        <time>2021-05-29T10:42:25.909Z</time>
      </trkpt>
      <trkpt lat="44.11912" lon="5.81698">
        <ele>1686.5</ele>
        <time>2021-05-29T10:43:01.745Z</time>
      </trkpt>
      <trkpt lat="44.1194" lon="5.81762">
        <ele>1695.3</ele>
        <time>2021-05-29T10:44:06.261Z</time>
      </trkpt>
      <trkpt lat="44.11944" lon="5.81825">
        <ele>1700.4</ele>
        <time>2021-05-29T10:44:47.977Z</time>
      </trkpt>
      <trkpt lat="44.11948" lon="5.81913">
        <ele>1696.2</ele>
        <time>2021-05-29T10:44:54.892Z</time>
      </trkpt>
      <trkpt lat="44.12006" lon="5.8185">
        <ele>1698.3</ele>
        <time>2021-05-29T10:45:25.854Z</time>
      </trkpt>
      <trkpt lat="44.12031" lon="5.81758">
        <ele>1698.2</ele>
        <time>2021-05-29T10:45:47.342Z</time>
      </trkpt>
      <trkpt lat="44.12066" lon="5.81649">
        <ele>1710.4</ele>
        <time>2021-05-29T10:47:30.127Z</time>
      </trkpt>
      <trkpt lat="44.121" lon="5.81552">
        <ele>1720.1</ele>
        <time>2021-05-29T10:48:53.137Z</time>
      </trkpt>
      <trkpt lat="44.12126" lon="5.81466">
        <ele>1727</ele>
        <time>2021-05-29T10:49:48.925Z</time>
      </trkpt>
      <trkpt lat="44.12168" lon="5.81396">
        <ele>1732</ele>
        <time>2021-05-29T10:50:31.952Z</time>
      </trkpt>
      <trkpt lat="44.122" lon="5.81308">
        <ele>1723.1</ele>
        <time>2021-05-29T10:50:40.377Z</time>
      </trkpt>
      <trkpt lat="44.12248" lon="5.81202">
        <ele>1726.8</ele>
        <time>2021-05-29T10:51:25.248Z</time>
      </trkpt>
      <trkpt lat="44.12293" lon="5.8111">
        <ele>1730.3</ele>
        <time>2021-05-29T10:52:06.735Z</time>
      </trkpt>
      <trkpt lat="44.12317" lon="5.81001">
        <ele>1748.6</ele>
        <time>2021-05-29T10:53:44.872Z</time>
      </trkpt>
      <trkpt lat="44.12322" lon="5.80908">
        <ele>1759.5</ele>
        <time>2021-05-29T10:55:05.146Z</time>
      </trkpt>
      <trkpt lat="44.12317" lon="5.80829">
        <ele>1762.5</ele>
        <time>2021-05-29T10:55:36.649Z</time>
      </trkpt>
      <trkpt lat="44.1234" lon="5.80705">
        <ele>1773.7</ele>
        <time>2021-05-29T10:57:11.047Z</time>
      </trkpt>
      <trkpt lat="44.12339" lon="5.80634">
        <ele>1776.9</ele>
        <time>2021-05-29T10:57:41.288Z</time>
      </trkpt>
      <trkpt lat="44.12308" lon="5.80539">
        <ele>1781.6</ele>
        <time>2021-05-29T10:58:25.717Z</time>
      </trkpt>
      <trkpt lat="44.12274" lon="5.80439">
        <ele>1795.1</ele>
        <time>2021-05-29T11:00:00.960Z</time>
      </trkpt>
      <trkpt lat="44.12274" lon="5.8034">
        <ele>1805.6</ele>
        <time>2021-05-29T11:01:26.175Z</time>
      </trkpt>
      <trkpt lat="44.1228" lon="5.80282">
        <ele>1808.7</ele>
        <time>2021-05-29T11:01:53.244Z</time>
      </trkpt>
      <trkpt lat="44.12254" lon="5.80248">
        <ele>1816.8</ele>
        <time>2021-05-29T11:02:36.004Z</time>
      </trkpt>
      <trkpt lat="44.12308" lon="5.80175">
        <ele>1801.4</ele>
        <time>2021-05-29T11:02:44.956Z</time>
      </trkpt>
      <trkpt lat="44.12337" lon="5.80082">
        <ele>1795.1</ele>
        <time>2021-05-29T11:02:53.615Z</time>
      </trkpt>
      <trkpt lat="44.12362" lon="5.79981">
        <ele>1785.8</ele>
        <time>2021-05-29T11:03:02.739Z</time>
      </trkpt>
      <trkpt lat="44.12363" lon="5.79896">
        <ele>1790.2</ele>
        <time>2021-05-29T11:03:41.528Z</time>
      </trkpt>
      <trkpt lat="44.12345" lon="5.79823">
        <ele>1797.8</ele>
        <time>2021-05-29T11:04:47.967Z</time>
      </trkpt>
      <trkpt lat="44.12342" lon="5.79752">
        <ele>1796</ele>
        <time>2021-05-29T11:04:55.270Z</time>
      </trkpt>
      <trkpt lat="44.12371" lon="5.79666">
        <ele>1778.1</ele>
        <time>2021-05-29T11:05:03.384Z</time>
      </trkpt>
      <trkpt lat="44.1239" lon="5.79604">
        <ele>1768.2</ele>
        <time>2021-05-29T11:05:09.141Z</time>
      </trkpt>
      <trkpt lat="44.12376" lon="5.79533">
        <ele>1761.5</ele>
        <time>2021-05-29T11:05:15.429Z</time>
      </trkpt>
      <trkpt lat="44.12363" lon="5.79486">
        <ele>1757.4</ele>
        <time>2021-05-29T11:05:19.731Z</time>
      </trkpt>
      <trkpt lat="44.12376" lon="5.79383">
        <ele>1736.9</ele>
        <time>2021-05-29T11:05:28.662Z</time>
      </trkpt>
      <trkpt lat="44.12377" lon="5.79295">
        <ele>1719.2</ele>
        <time>2021-05-29T11:05:36.178Z</time>
      </trkpt>
      <trkpt lat="44.12377" lon="5.79215">
        <ele>1702.9</ele>
        <time>2021-05-29T11:05:43.010Z</time>
      </trkpt>
      <trkpt lat="44.12371" lon="5.79147">
        <ele>1695.2</ele>
        <time>2021-05-29T11:05:48.861Z</time>
      </trkpt>
      <trkpt lat="44.1236" lon="5.791">
        <ele>1696</ele>
        <time>2021-05-29T11:06:02.763Z</time>
      </trkpt>
      <trkpt lat="44.12337" lon="5.79031">
        <ele>1709.4</ele>
        <time>2021-05-29T11:07:08.246Z</time>
      </trkpt>
      <trkpt lat="44.12305" lon="5.78932">
        <ele>1723.5</ele>
        <time>2021-05-29T11:08:41.701Z</time>
      </trkpt>
      <trkpt lat="44.12282" lon="5.78879">
        <ele>1726.9</ele>
        <time>2021-05-29T11:09:10.940Z</time>
      </trkpt>
      <trkpt lat="44.12262" lon="5.78829">
        <ele>1729.3</ele>
        <time>2021-05-29T11:09:34.578Z</time>
      </trkpt>
      <trkpt lat="44.12245" lon="5.78771">
        <ele>1723.7</ele>
        <time>2021-05-29T11:09:39.928Z</time>
      </trkpt>
      <trkpt lat="44.12229" lon="5.78679">
        <ele>1715.1</ele>
        <time>2021-05-29T11:09:48.012Z</time>
      </trkpt>
      <trkpt lat="44.12222" lon="5.7864">
        <ele>1714.5</ele>
        <time>2021-05-29T11:09:52.834Z</time>
      </trkpt>
      <trkpt lat="44.12171" lon="5.78615">
        <ele>1714</ele>
        <time>2021-05-29T11:10:03.267Z</time>
      </trkpt>
      <trkpt lat="44.12125" lon="5.78608">
        <ele>1707.5</ele>
        <time>2021-05-29T11:10:08.772Z</time>
      </trkpt>
      <trkpt lat="44.12078" lon="5.78606">
        <ele>1700.3</ele>
        <time>2021-05-29T11:10:14.366Z</time>
      </trkpt>
      <trkpt lat="44.12015" lon="5.78649">
        <ele>1693.5</ele>
        <time>2021-05-29T11:10:22.713Z</time>
      </trkpt>
      <trkpt lat="44.11981" lon="5.78688">
        <ele>1691.8</ele>
        <time>2021-05-29T11:10:28.810Z</time>
      </trkpt>
      <trkpt lat="44.11925" lon="5.78703">
        <ele>1694.3</ele>
        <time>2021-05-29T11:10:58.433Z</time>
      </trkpt>
      <trkpt lat="44.11848" lon="5.78731">
        <ele>1696.5</ele>
        <time>2021-05-29T11:11:31.562Z</time>
      </trkpt>
      <trkpt lat="44.11782" lon="5.78749">
        <ele>1698.8</ele>
        <time>2021-05-29T11:12:02.006Z</time>
      </trkpt>
      <trkpt lat="44.11742" lon="5.78766">
        <ele>1696.4</ele>
        <time>2021-05-29T11:12:06.908Z</time>
      </trkpt>
      <trkpt lat="44.1171" lon="5.78751">
        <ele>1693.2</ele>
        <time>2021-05-29T11:12:10.925Z</time>
      </trkpt>
      <trkpt lat="44.11669" lon="5.78756">
        <ele>1687.2</ele>
        <time>2021-05-29T11:12:15.821Z</time>
      </trkpt>
      <trkpt lat="44.11633" lon="5.7875">
        <ele>1679.3</ele>
        <time>2021-05-29T11:12:20.135Z</time>
      </trkpt>
      <trkpt lat="44.11604" lon="5.78761">
        <ele>1673.2</ele>
        <time>2021-05-29T11:12:23.711Z</time>
      </trkpt>
      <trkpt lat="44.11596" lon="5.78788">
        <ele>1672.8</ele>
        <time>2021-05-29T11:12:27.286Z</time>
      </trkpt>
      <trkpt lat="44.11624" lon="5.78836">
        <ele>1678.8</ele>
        <time>2021-05-29T11:13:20.527Z</time>
      </trkpt>
      <trkpt lat="44.11658" lon="5.78851">
        <ele>1680.6</ele>
        <time>2021-05-29T11:13:39.974Z</time>
      </trkpt>
      <trkpt lat="44.11652" lon="5.78872">
        <ele>1675</ele>
        <time>2021-05-29T11:13:41.904Z</time>
      </trkpt>
      <trkpt lat="44.1162" lon="5.78859">
        <ele>1673.8</ele>
        <time>2021-05-29T11:13:46.637Z</time>
      </trkpt>
      <trkpt lat="44.11589" lon="5.78865">
        <ele>1668.8</ele>
        <time>2021-05-29T11:13:50.361Z</time>
      </trkpt>
      <trkpt lat="44.11542" lon="5.78911">
        <ele>1661.9</ele>
        <time>2021-05-29T11:13:57.195Z</time>
      </trkpt>
      <trkpt lat="44.11532" lon="5.78953">
        <ele>1653.7</ele>
        <time>2021-05-29T11:14:00.974Z</time>
      </trkpt>
      <trkpt lat="44.11522" lon="5.78965">
        <ele>1652.3</ele>
        <time>2021-05-29T11:14:02.545Z</time>
      </trkpt>
      <trkpt lat="44.11462" lon="5.7908">
        <ele>1634.7</ele>
        <time>2021-05-29T11:14:14.687Z</time>
      </trkpt>
      <trkpt lat="44.11435" lon="5.7914">
        <ele>1625.8</ele>
        <time>2021-05-29T11:14:20.735Z</time>
      </trkpt>
      <trkpt lat="44.11409" lon="5.79167">
        <ele>1623</ele>
        <time>2021-05-29T11:14:24.593Z</time>
      </trkpt>
      <trkpt lat="44.11401" lon="5.79185">
        <ele>1618.4</ele>
        <time>2021-05-29T11:14:26.402Z</time>
      </trkpt>
      <trkpt lat="44.11379" lon="5.79198">
        <ele>1614</ele>
        <time>2021-05-29T11:14:29.245Z</time>
      </trkpt>
      <trkpt lat="44.1137" lon="5.79199">
        <ele>1613.2</ele>
        <time>2021-05-29T11:14:30.319Z</time>
      </trkpt>
      <trkpt lat="44.11341" lon="5.79216">
        <ele>1609</ele>
        <time>2021-05-29T11:14:34.062Z</time>
      </trkpt>
      <trkpt lat="44.11333" lon="5.79241">
        <ele>1605.9</ele>
        <time>2021-05-29T11:14:36.400Z</time>
      </trkpt>
      <trkpt lat="44.11285" lon="5.79274">
        <ele>1593.1</ele>
        <time>2021-05-29T11:14:42.768Z</time>
      </trkpt>
      <trkpt lat="44.11243" lon="5.79327">
        <ele>1577.1</ele>
        <time>2021-05-29T11:14:49.511Z</time>
      </trkpt>
      <trkpt lat="44.11195" lon="5.7935">
        <ele>1570.1</ele>
        <time>2021-05-29T11:14:55.550Z</time>
      </trkpt>
      <trkpt lat="44.11136" lon="5.79327">
        <ele>1574</ele>
        <time>2021-05-29T11:15:32.126Z</time>
      </trkpt>
      <trkpt lat="44.11128" lon="5.79329">
        <ele>1574</ele>
        <time>2021-05-29T11:15:34.653Z</time>
      </trkpt>
      <trkpt lat="44.11123" lon="5.79337">
        <ele>1573.3</ele>
        <time>2021-05-29T11:15:35.559Z</time>
      </trkpt>
      <trkpt lat="44.11124" lon="5.79324">
        <ele>1573.8</ele>
        <time>2021-05-29T11:15:40.773Z</time>
      </trkpt>
      <trkpt lat="44.11126" lon="5.79332">
        <ele>1574</ele>
        <time>2021-05-29T11:15:43.479Z</time>
      </trkpt>
      <trkpt lat="44.11121" lon="5.79351">
        <ele>1570.7</ele>
        <time>2021-05-29T11:15:45.207Z</time>
      </trkpt>
      <trkpt lat="44.11094" lon="5.79394">
        <ele>1564.5</ele>
        <time>2021-05-29T11:15:50.086Z</time>
      </trkpt>
      <trkpt lat="44.11084" lon="5.79402">
        <ele>1564.1</ele>
        <time>2021-05-29T11:15:51.745Z</time>
      </trkpt>
      <trkpt lat="44.11059" lon="5.79436">
        <ele>1557.8</ele>
        <time>2021-05-29T11:15:55.902Z</time>
      </trkpt>
      <trkpt lat="44.11003" lon="5.79494">
        <ele>1546.3</ele>
        <time>2021-05-29T11:16:04.205Z</time>
      </trkpt>
      <trkpt lat="44.1099" lon="5.79503">
        <ele>1544.7</ele>
        <time>2021-05-29T11:16:05.932Z</time>
      </trkpt>
      <trkpt lat="44.10935" lon="5.7951">
        <ele>1546.9</ele>
        <time>2021-05-29T11:16:32.965Z</time>
      </trkpt>
      <trkpt lat="44.10862" lon="5.79536">
        <ele>1538.1</ele>
        <time>2021-05-29T11:16:41.929Z</time>
      </trkpt>
      <trkpt lat="44.10838" lon="5.79553">
        <ele>1533.3</ele>
        <time>2021-05-29T11:16:45.132Z</time>
      </trkpt>
      <trkpt lat="44.10817" lon="5.79574">
        <ele>1527.5</ele>
        <time>2021-05-29T11:16:48.208Z</time>
      </trkpt>
      <trkpt lat="44.10804" lon="5.79594">
        <ele>1521.8</ele>
        <time>2021-05-29T11:16:50.512Z</time>
      </trkpt>
      <trkpt lat="44.10767" lon="5.79633">
        <ele>1509.5</ele>
        <time>2021-05-29T11:16:56.033Z</time>
      </trkpt>
      <trkpt lat="44.1075" lon="5.7966">
        <ele>1501.9</ele>
        <time>2021-05-29T11:16:59.100Z</time>
      </trkpt>
      <trkpt lat="44.10754" lon="5.79668">
        <ele>1499.4</ele>
        <time>2021-05-29T11:16:59.933Z</time>
      </trkpt>
      <trkpt lat="44.10754" lon="5.79677">
        <ele>1496.2</ele>
        <time>2021-05-29T11:17:00.702Z</time>
      </trkpt>
      <trkpt lat="44.10728" lon="5.79703">
        <ele>1488.6</ele>
        <time>2021-05-29T11:17:04.510Z</time>
      </trkpt>
      <trkpt lat="44.10648" lon="5.79722">
        <ele>1485.5</ele>
        <time>2021-05-29T11:17:15.788Z</time>
      </trkpt>
      <trkpt lat="44.10583" lon="5.79724">
        <ele>1483.2</ele>
        <time>2021-05-29T11:17:25.077Z</time>
      </trkpt>
      <trkpt lat="44.10517" lon="5.79714">
        <ele>1480.8</ele>
        <time>2021-05-29T11:17:34.490Z</time>
      </trkpt>
      <trkpt lat="44.10465" lon="5.79701">
        <ele>1480.2</ele>
        <time>2021-05-29T11:17:44.404Z</time>
      </trkpt>
      <trkpt lat="44.10449" lon="5.79702">
        <ele>1478.7</ele>
        <time>2021-05-29T11:17:46.310Z</time>
      </trkpt>
      <trkpt lat="44.10428" lon="5.79694">
        <ele>1478.7</ele>
        <time>2021-05-29T11:17:53.078Z</time>
      </trkpt>
      <trkpt lat="44.10395" lon="5.797">
        <ele>1474.4</ele>
        <time>2021-05-29T11:17:57.037Z</time>
      </trkpt>
      <trkpt lat="44.1037" lon="5.79716">
        <ele>1469.9</ele>
        <time>2021-05-29T11:18:00.311Z</time>
      </trkpt>
      <trkpt lat="44.10331" lon="5.79721">
        <ele>1466.5</ele>
        <time>2021-05-29T11:18:04.970Z</time>
      </trkpt>
      <trkpt lat="44.10333" lon="5.79722">
        <ele>1466.6</ele>
        <time>2021-05-29T11:18:06.103Z</time>
      </trkpt>
      <trkpt lat="44.10326" lon="5.79731">
        <ele>1465.3</ele>
        <time>2021-05-29T11:18:07.237Z</time>
      </trkpt>
      <trkpt lat="44.10331" lon="5.79724">
        <ele>1466.3</ele>
        <time>2021-05-29T11:18:15.738Z</time>
      </trkpt>
      <trkpt lat="44.10332" lon="5.79727">
        <ele>1466.2</ele>
        <time>2021-05-29T11:18:16.056Z</time>
      </trkpt>
      <trkpt lat="44.10296" lon="5.79757">
        <ele>1459.2</ele>
        <time>2021-05-29T11:18:21.047Z</time>
      </trkpt>
      <trkpt lat="44.10276" lon="5.79764">
        <ele>1455.6</ele>
        <time>2021-05-29T11:18:23.501Z</time>
      </trkpt>
      <trkpt lat="44.10269" lon="5.79782">
        <ele>1450.4</ele>
        <time>2021-05-29T11:18:25.249Z</time>
      </trkpt>
      <trkpt lat="44.10232" lon="5.7982">
        <ele>1439.2</ele>
        <time>2021-05-29T11:18:30.719Z</time>
      </trkpt>
      <trkpt lat="44.10219" lon="5.79825">
        <ele>1436.9</ele>
        <time>2021-05-29T11:18:32.323Z</time>
      </trkpt>
      <trkpt lat="44.1022" lon="5.79829">
        <ele>1436.3</ele>
        <time>2021-05-29T11:18:32.685Z</time>
      </trkpt>
      <trkpt lat="44.1022" lon="5.79826">
        <ele>1436.8</ele>
        <time>2021-05-29T11:18:35.268Z</time>
      </trkpt>
      <trkpt lat="44.10149" lon="5.79848">
        <ele>1425.6</ele>
        <time>2021-05-29T11:18:43.922Z</time>
      </trkpt>
      <trkpt lat="44.10127" lon="5.79882">
        <ele>1417.1</ele>
        <time>2021-05-29T11:18:47.832Z</time>
      </trkpt>
      <trkpt lat="44.10124" lon="5.79897">
        <ele>1414.4</ele>
        <time>2021-05-29T11:18:49.162Z</time>
      </trkpt>
      <trkpt lat="44.10093" lon="5.79924">
        <ele>1408.9</ele>
        <time>2021-05-29T11:18:53.512Z</time>
      </trkpt>
      <trkpt lat="44.10075" lon="5.79961">
        <ele>1398.7</ele>
        <time>2021-05-29T11:18:57.330Z</time>
      </trkpt>
      <trkpt lat="44.10061" lon="5.79973">
        <ele>1395</ele>
        <time>2021-05-29T11:18:59.286Z</time>
      </trkpt>
      <trkpt lat="44.10025" lon="5.79978">
        <ele>1392.4</ele>
        <time>2021-05-29T11:19:03.590Z</time>
      </trkpt>
      <trkpt lat="44.09999" lon="5.79975">
        <ele>1391.5</ele>
        <time>2021-05-29T11:19:07.350Z</time>
      </trkpt>
      <trkpt lat="44.09988" lon="5.7998">
        <ele>1389.3</ele>
        <time>2021-05-29T11:19:08.727Z</time>
      </trkpt>
      <trkpt lat="44.09973" lon="5.79999">
        <ele>1384.9</ele>
        <time>2021-05-29T11:19:11.139Z</time>
      </trkpt>
      <trkpt lat="44.09968" lon="5.79988">
        <ele>1385.2</ele>
        <time>2021-05-29T11:19:15.255Z</time>
      </trkpt>
      <trkpt lat="44.09974" lon="5.79987">
        <ele>1386.3</ele>
        <time>2021-05-29T11:19:22.501Z</time>
      </trkpt>
      <trkpt lat="44.09966" lon="5.79985">
        <ele>1385.2</ele>
        <time>2021-05-29T11:19:23.468Z</time>
      </trkpt>
      <trkpt lat="44.09938" lon="5.79963">
        <ele>1383</ele>
        <time>2021-05-29T11:19:27.293Z</time>
      </trkpt>
      <trkpt lat="44.09931" lon="5.79966">
        <ele>1381.6</ele>
        <time>2021-05-29T11:19:28.164Z</time>
      </trkpt>
      <trkpt lat="44.09925" lon="5.79984">
        <ele>1378.9</ele>
        <time>2021-05-29T11:19:29.860Z</time>
      </trkpt>
      <trkpt lat="44.09913" lon="5.79989">
        <ele>1376.7</ele>
        <time>2021-05-29T11:19:31.350Z</time>
      </trkpt>
      <trkpt lat="44.09886" lon="5.80039">
        <ele>1365.6</ele>
        <time>2021-05-29T11:19:36.695Z</time>
      </trkpt>
      <trkpt lat="44.09867" lon="5.80052">
        <ele>1361.1</ele>
        <time>2021-05-29T11:19:39.213Z</time>
      </trkpt>
      <trkpt lat="44.0981" lon="5.80065">
        <ele>1353.9</ele>
        <time>2021-05-29T11:19:46.085Z</time>
      </trkpt>
      <trkpt lat="44.0977" lon="5.80066">
        <ele>1351.8</ele>
        <time>2021-05-29T11:19:50.970Z</time>
      </trkpt>
      <trkpt lat="44.09711" lon="5.80079">
        <ele>1345.3</ele>
        <time>2021-05-29T11:19:58.076Z</time>
      </trkpt>
      <trkpt lat="44.09681" lon="5.80073">
        <ele>1343.3</ele>
        <time>2021-05-29T11:20:01.396Z</time>
      </trkpt>
      <trkpt lat="44.09656" lon="5.80043">
        <ele>1343.1</ele>
        <time>2021-05-29T11:20:10.784Z</time>
      </trkpt>
      <trkpt lat="44.09635" lon="5.80049">
        <ele>1339.2</ele>
        <time>2021-05-29T11:20:13.335Z</time>
      </trkpt>
      <trkpt lat="44.09618" lon="5.80069">
        <ele>1335.7</ele>
        <time>2021-05-29T11:20:15.983Z</time>
      </trkpt>
      <trkpt lat="44.09592" lon="5.80079">
        <ele>1332.1</ele>
        <time>2021-05-29T11:20:19.192Z</time>
      </trkpt>
      <trkpt lat="44.09568" lon="5.80114">
        <ele>1323</ele>
        <time>2021-05-29T11:20:23.326Z</time>
      </trkpt>
      <trkpt lat="44.09543" lon="5.80106">
        <ele>1320.2</ele>
        <time>2021-05-29T11:20:26.378Z</time>
      </trkpt>
      <trkpt lat="44.09517" lon="5.80119">
        <ele>1314</ele>
        <time>2021-05-29T11:20:29.664Z</time>
      </trkpt>
      <trkpt lat="44.0949" lon="5.80112">
        <ele>1310.6</ele>
        <time>2021-05-29T11:20:32.932Z</time>
      </trkpt>
      <trkpt lat="44.09478" lon="5.80118">
        <ele>1308</ele>
        <time>2021-05-29T11:20:34.449Z</time>
      </trkpt>
      <trkpt lat="44.09449" lon="5.80154">
        <ele>1300.1</ele>
        <time>2021-05-29T11:20:39.071Z</time>
      </trkpt>
      <trkpt lat="44.09387" lon="5.80201">
        <ele>1281.3</ele>
        <time>2021-05-29T11:20:47.469Z</time>
      </trkpt>
      <trkpt lat="44.09347" lon="5.80222">
        <ele>1273.9</ele>
        <time>2021-05-29T11:20:52.555Z</time>
      </trkpt>
      <trkpt lat="44.09308" lon="5.80224">
        <ele>1270.8</ele>
        <time>2021-05-29T11:20:57.198Z</time>
      </trkpt>
      <trkpt lat="44.09288" lon="5.80181">
        <ele>1272.5</ele>
        <time>2021-05-29T11:21:16.713Z</time>
      </trkpt>
      <trkpt lat="44.09281" lon="5.80157">
        <ele>1271.7</ele>
        <time>2021-05-29T11:21:19.184Z</time>
      </trkpt>
      <trkpt lat="44.09275" lon="5.80169">
        <ele>1270.6</ele>
        <time>2021-05-29T11:21:20.433Z</time>
      </trkpt>
      <trkpt lat="44.09272" lon="5.80165">
        <ele>1269.9</ele>
        <time>2021-05-29T11:21:20.927Z</time>
      </trkpt>
      <trkpt lat="44.09258" lon="5.80164">
        <ele>1266.7</ele>
        <time>2021-05-29T11:21:22.595Z</time>
      </trkpt>
      <trkpt lat="44.09258" lon="5.80145">
        <ele>1265.7</ele>
        <time>2021-05-29T11:21:24.218Z</time>
      </trkpt>
      <trkpt lat="44.09254" lon="5.80132">
        <ele>1264</ele>
        <time>2021-05-29T11:21:25.427Z</time>
      </trkpt>
      <trkpt lat="44.09237" lon="5.80139">
        <ele>1259.9</ele>
        <time>2021-05-29T11:21:27.536Z</time>
      </trkpt>
      <trkpt lat="44.09231" lon="5.80121">
        <ele>1257.1</ele>
        <time>2021-05-29T11:21:29.231Z</time>
      </trkpt>
      <trkpt lat="44.09232" lon="5.801">
        <ele>1256.1</ele>
        <time>2021-05-29T11:21:30.885Z</time>
      </trkpt>
      <trkpt lat="44.09228" lon="5.80084">
        <ele>1254</ele>
        <time>2021-05-29T11:21:32.333Z</time>
      </trkpt>
      <trkpt lat="44.09202" lon="5.80034">
        <ele>1247.7</ele>
        <time>2021-05-29T11:21:37.607Z</time>
      </trkpt>
      <trkpt lat="44.0917" lon="5.80016">
        <ele>1239.5</ele>
        <time>2021-05-29T11:21:41.713Z</time>
      </trkpt>
      <trkpt lat="44.09155" lon="5.79995">
        <ele>1236.5</ele>
        <time>2021-05-29T11:21:44.244Z</time>
      </trkpt>
      <trkpt lat="44.09132" lon="5.79973">
        <ele>1231.4</ele>
        <time>2021-05-29T11:21:47.564Z</time>
      </trkpt>
      <trkpt lat="44.0911" lon="5.79966">
        <ele>1226.5</ele>
        <time>2021-05-29T11:21:50.248Z</time>
      </trkpt>
      <trkpt lat="44.09089" lon="5.79988">
        <ele>1222.1</ele>
        <time>2021-05-29T11:21:53.375Z</time>
      </trkpt>
      <trkpt lat="44.09077" lon="5.80041">
        <ele>1218.8</ele>
        <time>2021-05-29T11:21:58.123Z</time>
      </trkpt>
      <trkpt lat="44.09076" lon="5.80067">
        <ele>1218.2</ele>
        <time>2021-05-29T11:22:00.886Z</time>
      </trkpt>
      <trkpt lat="44.09046" lon="5.80126">
        <ele>1212.6</ele>
        <time>2021-05-29T11:22:07.063Z</time>
      </trkpt>
      <trkpt lat="44.09025" lon="5.80138">
        <ele>1208.6</ele>
        <time>2021-05-29T11:22:09.763Z</time>
      </trkpt>
      <trkpt lat="44.08984" lon="5.80139">
        <ele>1199.2</ele>
        <time>2021-05-29T11:22:14.642Z</time>
      </trkpt>
      <trkpt lat="44.08976" lon="5.80124">
        <ele>1195.8</ele>
        <time>2021-05-29T11:22:16.238Z</time>
      </trkpt>
      <trkpt lat="44.08972" lon="5.80105">
        <ele>1192.9</ele>
        <time>2021-05-29T11:22:17.930Z</time>
      </trkpt>
      <trkpt lat="44.08962" lon="5.80101">
        <ele>1190.1</ele>
        <time>2021-05-29T11:22:19.168Z</time>
      </trkpt>
      <trkpt lat="44.08936" lon="5.80102">
        <ele>1184.3</ele>
        <time>2021-05-29T11:22:22.262Z</time>
      </trkpt>
      <trkpt lat="44.08923" lon="5.80089">
        <ele>1180</ele>
        <time>2021-05-29T11:22:24.166Z</time>
      </trkpt>
      <trkpt lat="44.089" lon="5.80092">
        <ele>1175.4</ele>
        <time>2021-05-29T11:22:26.915Z</time>
      </trkpt>
      <trkpt lat="44.08879" lon="5.8011">
        <ele>1172.4</ele>
        <time>2021-05-29T11:22:29.848Z</time>
      </trkpt>
      <trkpt lat="44.08871" lon="5.80125">
        <ele>1171.9</ele>
        <time>2021-05-29T11:22:31.730Z</time>
      </trkpt>
      <trkpt lat="44.08872" lon="5.80164">
        <ele>1175.1</ele>
        <time>2021-05-29T11:22:58.019Z</time>
      </trkpt>
      <trkpt lat="44.08865" lon="5.80179">
        <ele>1174.2</ele>
        <time>2021-05-29T11:22:59.547Z</time>
      </trkpt>
      <trkpt lat="44.08836" lon="5.80204">
        <ele>1168</ele>
        <time>2021-05-29T11:23:03.605Z</time>
      </trkpt>
      <trkpt lat="44.08818" lon="5.80192">
        <ele>1163.3</ele>
        <time>2021-05-29T11:23:05.979Z</time>
      </trkpt>
      <trkpt lat="44.0881" lon="5.80222">
        <ele>1162.8</ele>
        <time>2021-05-29T11:23:09.778Z</time>
      </trkpt>
      <trkpt lat="44.08796" lon="5.80225">
        <ele>1159.8</ele>
        <time>2021-05-29T11:23:11.463Z</time>
      </trkpt>
      <trkpt lat="44.08786" lon="5.80233">
        <ele>1157.9</ele>
        <time>2021-05-29T11:23:12.835Z</time>
      </trkpt>
      <trkpt lat="44.08768" lon="5.80259">
        <ele>1155.5</ele>
        <time>2021-05-29T11:23:15.921Z</time>
      </trkpt>
      <trkpt lat="44.08753" lon="5.8027">
        <ele>1152.9</ele>
        <time>2021-05-29T11:23:17.938Z</time>
      </trkpt>
      <trkpt lat="44.08732" lon="5.80308">
        <ele>1151</ele>
        <time>2021-05-29T11:23:22.049Z</time>
      </trkpt>
      <trkpt lat="44.08724" lon="5.80315">
        <ele>1150</ele>
        <time>2021-05-29T11:23:23.173Z</time>
      </trkpt>
      <trkpt lat="44.08715" lon="5.80307">
        <ele>1147.7</ele>
        <time>2021-05-29T11:23:24.444Z</time>
      </trkpt>
      <trkpt lat="44.08709" lon="5.80292">
        <ele>1145.4</ele>
        <time>2021-05-29T11:23:25.911Z</time>
      </trkpt>
      <trkpt lat="44.08701" lon="5.80228">
        <ele>1138.5</ele>
        <time>2021-05-29T11:23:31.462Z</time>
      </trkpt>
      <trkpt lat="44.08704" lon="5.80188">
        <ele>1135.7</ele>
        <time>2021-05-29T11:23:34.899Z</time>
      </trkpt>
      <trkpt lat="44.08712" lon="5.80141">
        <ele>1133.8</ele>
        <time>2021-05-29T11:23:39.055Z</time>
      </trkpt>
      <trkpt lat="44.08779" lon="5.79956">
        <ele>1135.1</ele>
        <time>2021-05-29T11:24:29.342Z</time>
      </trkpt>
      <trkpt lat="44.08745" lon="5.79905">
        <ele>1126.6</ele>
        <time>2021-05-29T11:24:35.288Z</time>
      </trkpt>
      <trkpt lat="44.08727" lon="5.799">
        <ele>1128.1</ele>
        <time>2021-05-29T11:24:47.883Z</time>
      </trkpt>
      <trkpt lat="44.08692" lon="5.79907">
        <ele>1128.4</ele>
        <time>2021-05-29T11:24:59.801Z</time>
      </trkpt>
      <trkpt lat="44.08682" lon="5.79917">
        <ele>1126.6</ele>
        <time>2021-05-29T11:25:01.266Z</time>
      </trkpt>
      <trkpt lat="44.08619" lon="5.79942">
        <ele>1125.5</ele>
        <time>2021-05-29T11:25:12.745Z</time>
      </trkpt>
      <trkpt lat="44.08601" lon="5.79956">
        <ele>1124.1</ele>
        <time>2021-05-29T11:25:15.198Z</time>
      </trkpt>
      <trkpt lat="44.08587" lon="5.79956">
        <ele>1124.7</ele>
        <time>2021-05-29T11:25:22.363Z</time>
      </trkpt>
      <trkpt lat="44.08541" lon="5.79915">
        <ele>1125.1</ele>
        <time>2021-05-29T11:25:40.564Z</time>
      </trkpt>
      <trkpt lat="44.08483" lon="5.7988">
        <ele>1120.5</ele>
        <time>2021-05-29T11:25:48.085Z</time>
      </trkpt>
      <trkpt lat="44.08428" lon="5.79854">
        <ele>1114.4</ele>
        <time>2021-05-29T11:25:54.995Z</time>
      </trkpt>
      <trkpt lat="44.08412" lon="5.79852">
        <ele>1112.4</ele>
        <time>2021-05-29T11:25:56.906Z</time>
      </trkpt>
      <trkpt lat="44.08388" lon="5.7986">
        <ele>1109.4</ele>
        <time>2021-05-29T11:25:59.842Z</time>
      </trkpt>
      <trkpt lat="44.08383" lon="5.7987">
        <ele>1107.8</ele>
        <time>2021-05-29T11:26:00.883Z</time>
      </trkpt>
      <trkpt lat="44.08386" lon="5.79872">
        <ele>1107.8</ele>
        <time>2021-05-29T11:26:01.917Z</time>
      </trkpt>
      <trkpt lat="44.08358" lon="5.79903">
        <ele>1101.7</ele>
        <time>2021-05-29T11:26:06.173Z</time>
      </trkpt>
      <trkpt lat="44.0835" lon="5.7992">
        <ele>1099.2</ele>
        <time>2021-05-29T11:26:07.910Z</time>
      </trkpt>
      <trkpt lat="44.08355" lon="5.79956">
        <ele>1097.7</ele>
        <time>2021-05-29T11:26:11.009Z</time>
      </trkpt>
      <trkpt lat="44.08354" lon="5.79983">
        <ele>1096.2</ele>
        <time>2021-05-29T11:26:13.319Z</time>
      </trkpt>
      <trkpt lat="44.08293" lon="5.80016">
        <ele>1086.7</ele>
        <time>2021-05-29T11:26:21.105Z</time>
      </trkpt>
      <trkpt lat="44.08258" lon="5.79984">
        <ele>1082.9</ele>
        <time>2021-05-29T11:26:26.087Z</time>
      </trkpt>
      <trkpt lat="44.08195" lon="5.79962">
        <ele>1076.4</ele>
        <time>2021-05-29T11:26:33.814Z</time>
      </trkpt>
      <trkpt lat="44.08149" lon="5.79953">
        <ele>1072.2</ele>
        <time>2021-05-29T11:26:39.340Z</time>
      </trkpt>
      <trkpt lat="44.08131" lon="5.79942">
        <ele>1072.4</ele>
        <time>2021-05-29T11:26:46.079Z</time>
      </trkpt>
      <trkpt lat="44.08063" lon="5.79885">
        <ele>1076.1</ele>
        <time>2021-05-29T11:27:28.290Z</time>
      </trkpt>
      <trkpt lat="44.08027" lon="5.79869">
        <ele>1076.8</ele>
        <time>2021-05-29T11:27:42.439Z</time>
      </trkpt>
      <trkpt lat="44.07968" lon="5.7986">
        <ele>1075.3</ele>
        <time>2021-05-29T11:27:51.865Z</time>
      </trkpt>
      <trkpt lat="44.07905" lon="5.79868">
        <ele>1070.2</ele>
        <time>2021-05-29T11:27:59.391Z</time>
      </trkpt>
      <trkpt lat="44.07884" lon="5.79866">
        <ele>1069.9</ele>
        <time>2021-05-29T11:28:03.197Z</time>
      </trkpt>
      <trkpt lat="44.0783" lon="5.79878">
        <ele>1066.3</ele>
        <time>2021-05-29T11:28:09.195Z</time>
      </trkpt>
      <trkpt lat="44.07806" lon="5.79865">
        <ele>1065.5</ele>
        <time>2021-05-29T11:28:13.039Z</time>
      </trkpt>
      <trkpt lat="44.07807" lon="5.79868">
        <ele>1065.3</ele>
        <time>2021-05-29T11:28:13.322Z</time>
      </trkpt>
      <trkpt lat="44.078" lon="5.79866">
        <ele>1064.7</ele>
        <time>2021-05-29T11:28:14.172Z</time>
      </trkpt>
      <trkpt lat="44.07794" lon="5.79849">
        <ele>1065.3</ele>
        <time>2021-05-29T11:28:21.268Z</time>
      </trkpt>
      <trkpt lat="44.07812" lon="5.79795">
        <ele>1065.6</ele>
        <time>2021-05-29T11:28:35.476Z</time>
      </trkpt>
      <trkpt lat="44.07793" lon="5.79767">
        <ele>1058.7</ele>
        <time>2021-05-29T11:28:38.768Z</time>
      </trkpt>
      <trkpt lat="44.07802" lon="5.79704">
        <ele>1052.5</ele>
        <time>2021-05-29T11:28:44.257Z</time>
      </trkpt>
      <trkpt lat="44.07784" lon="5.79707">
        <ele>1048.4</ele>
        <time>2021-05-29T11:28:46.414Z</time>
      </trkpt>
      <trkpt lat="44.07773" lon="5.797">
        <ele>1044.5</ele>
        <time>2021-05-29T11:28:47.853Z</time>
      </trkpt>
      <trkpt lat="44.07778" lon="5.79678">
        <ele>1042.4</ele>
        <time>2021-05-29T11:28:49.825Z</time>
      </trkpt>
      <trkpt lat="44.07766" lon="5.7965">
        <ele>1035.4</ele>
        <time>2021-05-29T11:28:52.612Z</time>
      </trkpt>
      <trkpt lat="44.07767" lon="5.79604">
        <ele>1030</ele>
        <time>2021-05-29T11:28:56.545Z</time>
      </trkpt>
      <trkpt lat="44.07757" lon="5.79575">
        <ele>1025.1</ele>
        <time>2021-05-29T11:28:59.294Z</time>
      </trkpt>
      <trkpt lat="44.07725" lon="5.79597">
        <ele>1022.4</ele>
        <time>2021-05-29T11:29:03.540Z</time>
      </trkpt>
      <trkpt lat="44.07719" lon="5.79586">
        <ele>1021.3</ele>
        <time>2021-05-29T11:29:04.721Z</time>
      </trkpt>
      <trkpt lat="44.0771" lon="5.79593">
        <ele>1020.9</ele>
        <time>2021-05-29T11:29:06.145Z</time>
      </trkpt>
      <trkpt lat="44.07703" lon="5.7959">
        <ele>1020.3</ele>
        <time>2021-05-29T11:29:07.017Z</time>
      </trkpt>
      <trkpt lat="44.07668" lon="5.79601">
        <ele>1017.1</ele>
        <time>2021-05-29T11:29:11.285Z</time>
      </trkpt>
      <trkpt lat="44.07611" lon="5.79631">
        <ele>1016.6</ele>
        <time>2021-05-29T11:29:23.212Z</time>
      </trkpt>
      <trkpt lat="44.07593" lon="5.79633">
        <ele>1016.7</ele>
        <time>2021-05-29T11:29:29.125Z</time>
      </trkpt>
      <trkpt lat="44.07564" lon="5.7965">
        <ele>1013.9</ele>
        <time>2021-05-29T11:29:32.869Z</time>
      </trkpt>
      <trkpt lat="44.0754" lon="5.79672">
        <ele>1010.2</ele>
        <time>2021-05-29T11:29:36.287Z</time>
      </trkpt>
      <trkpt lat="44.07502" lon="5.79697">
        <ele>1005.5</ele>
        <time>2021-05-29T11:29:41.288Z</time>
      </trkpt>
      <trkpt lat="44.07471" lon="5.79709">
        <ele>1002.9</ele>
        <time>2021-05-29T11:29:45.116Z</time>
      </trkpt>
      <trkpt lat="44.07422" lon="5.79716">
        <ele>1001.3</ele>
        <time>2021-05-29T11:29:52.362Z</time>
      </trkpt>
      <trkpt lat="44.07373" lon="5.79703">
        <ele>999.5</ele>
        <time>2021-05-29T11:29:59.438Z</time>
      </trkpt>
      <trkpt lat="44.0733" lon="5.79705">
        <ele>994.4</ele>
        <time>2021-05-29T11:30:04.557Z</time>
      </trkpt>
      <trkpt lat="44.07327" lon="5.79712">
        <ele>992.8</ele>
        <time>2021-05-29T11:30:05.254Z</time>
      </trkpt>
      <trkpt lat="44.0731" lon="5.79723">
        <ele>988.2</ele>
        <time>2021-05-29T11:30:07.484Z</time>
      </trkpt>
      <trkpt lat="44.07299" lon="5.79725">
        <ele>986</ele>
        <time>2021-05-29T11:30:08.804Z</time>
      </trkpt>
      <trkpt lat="44.07281" lon="5.79721">
        <ele>983.5</ele>
        <time>2021-05-29T11:30:10.972Z</time>
      </trkpt>
      <trkpt lat="44.07256" lon="5.79724">
        <ele>978.8</ele>
        <time>2021-05-29T11:30:13.958Z</time>
      </trkpt>
      <trkpt lat="44.07237" lon="5.79721">
        <ele>976.6</ele>
        <time>2021-05-29T11:30:16.232Z</time>
      </trkpt>
      <trkpt lat="44.07219" lon="5.79725">
        <ele>973.8</ele>
        <time>2021-05-29T11:30:18.401Z</time>
      </trkpt>
      <trkpt lat="44.07161" lon="5.79694">
        <ele>970.5</ele>
        <time>2021-05-29T11:30:25.947Z</time>
      </trkpt>
      <trkpt lat="44.07138" lon="5.79694">
        <ele>966.7</ele>
        <time>2021-05-29T11:30:28.684Z</time>
      </trkpt>
      <trkpt lat="44.07118" lon="5.79683">
        <ele>964.5</ele>
        <time>2021-05-29T11:30:31.242Z</time>
      </trkpt>
      <trkpt lat="44.07058" lon="5.79631">
        <ele>954.6</ele>
        <time>2021-05-29T11:30:39.651Z</time>
      </trkpt>
      <trkpt lat="44.07051" lon="5.79605">
        <ele>952.9</ele>
        <time>2021-05-29T11:30:42.024Z</time>
      </trkpt>
      <trkpt lat="44.07049" lon="5.79545">
        <ele>952.2</ele>
        <time>2021-05-29T11:30:49.639Z</time>
      </trkpt>
      <trkpt lat="44.07019" lon="5.79541">
        <ele>945.3</ele>
        <time>2021-05-29T11:30:53.225Z</time>
      </trkpt>
      <trkpt lat="44.07012" lon="5.79546">
        <ele>943.7</ele>
        <time>2021-05-29T11:30:54.161Z</time>
      </trkpt>
      <trkpt lat="44.07004" lon="5.79545">
        <ele>941.8</ele>
        <time>2021-05-29T11:30:55.116Z</time>
      </trkpt>
      <trkpt lat="44.06967" lon="5.79559">
        <ele>934.4</ele>
        <time>2021-05-29T11:30:59.678Z</time>
      </trkpt>
      <trkpt lat="44.06952" lon="5.79556">
        <ele>931.8</ele>
        <time>2021-05-29T11:31:01.481Z</time>
      </trkpt>
      <trkpt lat="44.06923" lon="5.79534">
        <ele>928.2</ele>
        <time>2021-05-29T11:31:05.410Z</time>
      </trkpt>
      <trkpt lat="44.06892" lon="5.79526">
        <ele>923.7</ele>
        <time>2021-05-29T11:31:09.161Z</time>
      </trkpt>
      <trkpt lat="44.06857" lon="5.79527">
        <ele>917.7</ele>
        <time>2021-05-29T11:31:13.326Z</time>
      </trkpt>
      <trkpt lat="44.06832" lon="5.79521">
        <ele>914.3</ele>
        <time>2021-05-29T11:31:16.344Z</time>
      </trkpt>
      <trkpt lat="44.0682" lon="5.79513">
        <ele>913.3</ele>
        <time>2021-05-29T11:31:17.927Z</time>
      </trkpt>
      <trkpt lat="44.0678" lon="5.79514">
        <ele>906.7</ele>
        <time>2021-05-29T11:31:22.686Z</time>
      </trkpt>
      <trkpt lat="44.06772" lon="5.79492">
        <ele>907.3</ele>
        <time>2021-05-29T11:31:30.671Z</time>
      </trkpt>
      <trkpt lat="44.06745" lon="5.7946">
        <ele>905.6</ele>
        <time>2021-05-29T11:31:35.175Z</time>
      </trkpt>
      <trkpt lat="44.06732" lon="5.79432">
        <ele>906.2</ele>
        <time>2021-05-29T11:31:44.839Z</time>
      </trkpt>
      <trkpt lat="44.06719" lon="5.79414">
        <ele>906.2</ele>
        <time>2021-05-29T11:31:50.540Z</time>
      </trkpt>
      <trkpt lat="44.0667" lon="5.79381">
        <ele>903.7</ele>
        <time>2021-05-29T11:31:57.579Z</time>
      </trkpt>
      <trkpt lat="44.06596" lon="5.79376">
        <ele>895</ele>
        <time>2021-05-29T11:32:06.393Z</time>
      </trkpt>
      <trkpt lat="44.06578" lon="5.79369">
        <ele>893.5</ele>
        <time>2021-05-29T11:32:08.617Z</time>
      </trkpt>
      <trkpt lat="44.06572" lon="5.79372">
        <ele>892.3</ele>
        <time>2021-05-29T11:32:09.375Z</time>
      </trkpt>
      <trkpt lat="44.06504" lon="5.7934">
        <ele>887.5</ele>
        <time>2021-05-29T11:32:17.915Z</time>
      </trkpt>
      <trkpt lat="44.06493" lon="5.79327">
        <ele>888.3</ele>
        <time>2021-05-29T11:32:26.049Z</time>
      </trkpt>
      <trkpt lat="44.06483" lon="5.79329">
        <ele>887.2</ele>
        <time>2021-05-29T11:32:27.251Z</time>
      </trkpt>
      <trkpt lat="44.06438" lon="5.79318">
        <ele>884.7</ele>
        <time>2021-05-29T11:32:32.727Z</time>
      </trkpt>
      <trkpt lat="44.06424" lon="5.79306">
        <ele>885</ele>
        <time>2021-05-29T11:32:38.864Z</time>
      </trkpt>
      <trkpt lat="44.06385" lon="5.79307">
        <ele>882.5</ele>
        <time>2021-05-29T11:32:43.200Z</time>
      </trkpt>
      <trkpt lat="44.06371" lon="5.79299">
        <ele>882.7</ele>
        <time>2021-05-29T11:32:48.552Z</time>
      </trkpt>
      <trkpt lat="44.06346" lon="5.79305">
        <ele>880.7</ele>
        <time>2021-05-29T11:32:51.570Z</time>
      </trkpt>
      <trkpt lat="44.06305" lon="5.79299">
        <ele>879.5</ele>
        <time>2021-05-29T11:32:57.852Z</time>
      </trkpt>
      <trkpt lat="44.06287" lon="5.7929">
        <ele>879.7</ele>
        <time>2021-05-29T11:33:04.427Z</time>
      </trkpt>
      <trkpt lat="44.06256" lon="5.79295">
        <ele>877.9</ele>
        <time>2021-05-29T11:33:08.077Z</time>
      </trkpt>
      <trkpt lat="44.06223" lon="5.79294">
        <ele>875</ele>
        <time>2021-05-29T11:33:12.004Z</time>
      </trkpt>
      <trkpt lat="44.06172" lon="5.79247">
        <ele>873.8</ele>
        <time>2021-05-29T11:33:22.366Z</time>
      </trkpt>
      <trkpt lat="44.06159" lon="5.79242">
        <ele>873</ele>
        <time>2021-05-29T11:33:23.923Z</time>
      </trkpt>
      <trkpt lat="44.06138" lon="5.79247">
        <ele>871.5</ele>
        <time>2021-05-29T11:33:26.457Z</time>
      </trkpt>
      <trkpt lat="44.06125" lon="5.79263">
        <ele>869.3</ele>
        <time>2021-05-29T11:33:28.522Z</time>
      </trkpt>
      <trkpt lat="44.06114" lon="5.79291">
        <ele>866.1</ele>
        <time>2021-05-29T11:33:31.250Z</time>
      </trkpt>
      <trkpt lat="44.06118" lon="5.79293">
        <ele>866.2</ele>
        <time>2021-05-29T11:33:32.934Z</time>
      </trkpt>
      <trkpt lat="44.06111" lon="5.79306">
        <ele>864.5</ele>
        <time>2021-05-29T11:33:34.323Z</time>
      </trkpt>
      <trkpt lat="44.06096" lon="5.79311">
        <ele>863</ele>
        <time>2021-05-29T11:33:36.158Z</time>
      </trkpt>
      <trkpt lat="44.06079" lon="5.79305">
        <ele>862.3</ele>
        <time>2021-05-29T11:33:38.556Z</time>
      </trkpt>
      <trkpt lat="44.05967" lon="5.79212">
        <ele>856.4</ele>
        <time>2021-05-29T11:33:55.527Z</time>
      </trkpt>
      <trkpt lat="44.05901" lon="5.79104">
        <ele>856.3</ele>
        <time>2021-05-29T11:34:26.729Z</time>
      </trkpt>
      <trkpt lat="44.0588" lon="5.79063">
        <ele>856.3</ele>
        <time>2021-05-29T11:34:37.977Z</time>
      </trkpt>
      <trkpt lat="44.05849" lon="5.79024">
        <ele>854</ele>
        <time>2021-05-29T11:34:42.972Z</time>
      </trkpt>
      <trkpt lat="44.05823" lon="5.78979">
        <ele>851.4</ele>
        <time>2021-05-29T11:34:47.636Z</time>
      </trkpt>
      <trkpt lat="44.05802" lon="5.78934">
        <ele>848.7</ele>
        <time>2021-05-29T11:34:52.224Z</time>
      </trkpt>
      <trkpt lat="44.05786" lon="5.78912">
        <ele>846.9</ele>
        <time>2021-05-29T11:34:54.900Z</time>
      </trkpt>
      <trkpt lat="44.05699" lon="5.78833">
        <ele>836.9</ele>
        <time>2021-05-29T11:35:07.259Z</time>
      </trkpt>
      <trkpt lat="44.0568" lon="5.78793">
        <ele>832.8</ele>
        <time>2021-05-29T11:35:11.358Z</time>
      </trkpt>
      <trkpt lat="44.05679" lon="5.78741">
        <ele>830.8</ele>
        <time>2021-05-29T11:35:15.884Z</time>
      </trkpt>
      <trkpt lat="44.05666" lon="5.78705">
        <ele>829.5</ele>
        <time>2021-05-29T11:35:19.663Z</time>
      </trkpt>
      <trkpt lat="44.05664" lon="5.7868">
        <ele>829.5</ele>
        <time>2021-05-29T11:35:25.283Z</time>
      </trkpt>
      <trkpt lat="44.05648" lon="5.78623">
        <ele>826.3</ele>
        <time>2021-05-29T11:35:30.515Z</time>
      </trkpt>
      <trkpt lat="44.05646" lon="5.78587">
        <ele>825.1</ele>
        <time>2021-05-29T11:35:33.861Z</time>
      </trkpt>
      <trkpt lat="44.0563" lon="5.78556">
        <ele>821.7</ele>
        <time>2021-05-29T11:35:37.124Z</time>
      </trkpt>
      <trkpt lat="44.05621" lon="5.7851">
        <ele>818.8</ele>
        <time>2021-05-29T11:35:41.200Z</time>
      </trkpt>
      <trkpt lat="44.05623" lon="5.78484">
        <ele>818.1</ele>
        <time>2021-05-29T11:35:43.836Z</time>
      </trkpt>
      <trkpt lat="44.05615" lon="5.78473">
        <ele>816.7</ele>
        <time>2021-05-29T11:35:45.174Z</time>
      </trkpt>
      <trkpt lat="44.0555" lon="5.78432">
        <ele>807.3</ele>
        <time>2021-05-29T11:35:53.664Z</time>
      </trkpt>
      <trkpt lat="44.05548" lon="5.78423">
        <ele>806.9</ele>
        <time>2021-05-29T11:35:54.447Z</time>
      </trkpt>
      <trkpt lat="44.05565" lon="5.78344">
        <ele>804.4</ele>
        <time>2021-05-29T11:36:02.378Z</time>
      </trkpt>
      <trkpt lat="44.05559" lon="5.78307">
        <ele>802.9</ele>
        <time>2021-05-29T11:36:05.636Z</time>
      </trkpt>
      <trkpt lat="44.05547" lon="5.78267">
        <ele>801.5</ele>
        <time>2021-05-29T11:36:09.700Z</time>
      </trkpt>
      <trkpt lat="44.05489" lon="5.78222">
        <ele>797.4</ele>
        <time>2021-05-29T11:36:17.219Z</time>
      </trkpt>
      <trkpt lat="44.05473" lon="5.78201">
        <ele>796.6</ele>
        <time>2021-05-29T11:36:20.330Z</time>
      </trkpt>
      <trkpt lat="44.05403" lon="5.78142">
        <ele>789.7</ele>
        <time>2021-05-29T11:36:30.067Z</time>
      </trkpt>
      <trkpt lat="44.05376" lon="5.78107">
        <ele>786.8</ele>
        <time>2021-05-29T11:36:34.457Z</time>
      </trkpt>
      <trkpt lat="44.05313" lon="5.78054">
        <ele>780.8</ele>
        <time>2021-05-29T11:36:43.215Z</time>
      </trkpt>
      <trkpt lat="44.0529" lon="5.7802">
        <ele>779.2</ele>
        <time>2021-05-29T11:36:47.488Z</time>
      </trkpt>
      <trkpt lat="44.05269" lon="5.78005">
        <ele>777.1</ele>
        <time>2021-05-29T11:36:50.296Z</time>
      </trkpt>
      <trkpt lat="44.05251" lon="5.77984">
        <ele>775.9</ele>
        <time>2021-05-29T11:36:53.199Z</time>
      </trkpt>
      <trkpt lat="44.05198" lon="5.77955">
        <ele>771.1</ele>
        <time>2021-05-29T11:36:59.974Z</time>
      </trkpt>
      <trkpt lat="44.05117" lon="5.77888">
        <ele>759.7</ele>
        <time>2021-05-29T11:37:11.185Z</time>
      </trkpt>
      <trkpt lat="44.05092" lon="5.77875">
        <ele>755.7</ele>
        <time>2021-05-29T11:37:14.360Z</time>
      </trkpt>
      <trkpt lat="44.05059" lon="5.77876">
        <ele>750.8</ele>
        <time>2021-05-29T11:37:18.287Z</time>
      </trkpt>
      <trkpt lat="44.05045" lon="5.77897">
        <ele>749.8</ele>
        <time>2021-05-29T11:37:20.887Z</time>
      </trkpt>
      <trkpt lat="44.0504" lon="5.77927">
        <ele>750.3</ele>
        <time>2021-05-29T11:37:29.563Z</time>
      </trkpt>
      <trkpt lat="44.05041" lon="5.77956">
        <ele>750.7</ele>
        <time>2021-05-29T11:37:37.432Z</time>
      </trkpt>
      <trkpt lat="44.05038" lon="5.77953">
        <ele>750.3</ele>
        <time>2021-05-29T11:37:37.871Z</time>
      </trkpt>
      <trkpt lat="44.05037" lon="5.77936">
        <ele>750</ele>
        <time>2021-05-29T11:37:39.836Z</time>
      </trkpt>
      <trkpt lat="44.05014" lon="5.77921">
        <ele>746.9</ele>
        <time>2021-05-29T11:37:42.858Z</time>
      </trkpt>
      <trkpt lat="44.05001" lon="5.77954">
        <ele>746</ele>
        <time>2021-05-29T11:37:46.804Z</time>
      </trkpt>
      <trkpt lat="44.04972" lon="5.78003">
        <ele>741.9</ele>
        <time>2021-05-29T11:37:52.232Z</time>
      </trkpt>
      <trkpt lat="44.04928" lon="5.77985">
        <ele>733.4</ele>
        <time>2021-05-29T11:37:57.688Z</time>
      </trkpt>
      <trkpt lat="44.04913" lon="5.77931">
        <ele>728.2</ele>
        <time>2021-05-29T11:38:02.638Z</time>
      </trkpt>
      <trkpt lat="44.04897" lon="5.77942">
        <ele>726.5</ele>
        <time>2021-05-29T11:38:04.762Z</time>
      </trkpt>
      <trkpt lat="44.04893" lon="5.77961">
        <ele>726.9</ele>
        <time>2021-05-29T11:38:10.719Z</time>
      </trkpt>
      <trkpt lat="44.04882" lon="5.7811">
        <ele>725.9</ele>
        <time>2021-05-29T11:38:31.482Z</time>
      </trkpt>
      <trkpt lat="44.04883" lon="5.78133">
        <ele>725.8</ele>
        <time>2021-05-29T11:38:36.195Z</time>
      </trkpt>
      <trkpt lat="44.04873" lon="5.78156">
        <ele>724.4</ele>
        <time>2021-05-29T11:38:38.493Z</time>
      </trkpt>
      <trkpt lat="44.04857" lon="5.78156">
        <ele>722.7</ele>
        <time>2021-05-29T11:38:40.397Z</time>
      </trkpt>
      <trkpt lat="44.04706" lon="5.78092">
        <ele>709.8</ele>
        <time>2021-05-29T11:38:59.176Z</time>
      </trkpt>
      <trkpt lat="44.04675" lon="5.78074">
        <ele>706.5</ele>
        <time>2021-05-29T11:39:03.173Z</time>
      </trkpt>
      <trkpt lat="44.04655" lon="5.78057">
        <ele>704.1</ele>
        <time>2021-05-29T11:39:05.961Z</time>
      </trkpt>
      <trkpt lat="44.04608" lon="5.78032">
        <ele>699.2</ele>
        <time>2021-05-29T11:39:11.947Z</time>
      </trkpt>
      <trkpt lat="44.04586" lon="5.78016">
        <ele>696.8</ele>
        <time>2021-05-29T11:39:14.900Z</time>
      </trkpt>
      <trkpt lat="44.04544" lon="5.77985">
        <ele>693.4</ele>
        <time>2021-05-29T11:39:20.557Z</time>
      </trkpt>
      <trkpt lat="44.04533" lon="5.77841">
        <ele>687.2</ele>
        <time>2021-05-29T11:39:32.547Z</time>
      </trkpt>
      <trkpt lat="44.04521" lon="5.77704">
        <ele>687.5</ele>
        <time>2021-05-29T11:40:04.265Z</time>
      </trkpt>
      <trkpt lat="44.04505" lon="5.77608">
        <ele>686.5</ele>
        <time>2021-05-29T11:40:17.095Z</time>
      </trkpt>
      <trkpt lat="44.04455" lon="5.77519">
        <ele>681.1</ele>
        <time>2021-05-29T11:40:25.955Z</time>
      </trkpt>
      <trkpt lat="44.04417" lon="5.77426">
        <ele>679.7</ele>
        <time>2021-05-29T11:40:39.201Z</time>
      </trkpt>
      <trkpt lat="44.04379" lon="5.77368">
        <ele>677.9</ele>
        <time>2021-05-29T11:40:47.548Z</time>
      </trkpt>
    </trkseg>
  </trk>
</gpx>